| Place | Name | Time | Raw score | Score |
|---|---|---|---|---|
| 1 | -DarkLlama- | 1:29.42 | 1,000 | 403 |
| 2 | Brionac | 1:29.46 | 900 | 363 |
| 3 | Ferreus | 1:31.50 | 859 | 346 |
| 4 | Freud | 1:35.48 | 827 | 333 |
| 5 | Tiyenti | 1:36.67 | 800 | 323 |
| 6 | Zany | 1:38.14 | 777 | 313 |
| 7 | Kenaz | 1:40.75 | 756 | 305 |
| 8 | A05Polzar | 1:42.60 | 736 | 297 |
| 9 | aerie | 1:42.98 | 718 | 290 |
| 10 | slug ʕ●.●ʔ | 1:51.17 | 700 | 282 |
| 11 | Terrapin | 1:51.33 | 684 | 276 |
| 12 | IllKIllU | 1:51.42 | 669 | 270 |
| 13 | Thermos | 1:51.65 | 654 | 264 |
| 14 | Kinix | 1:51.94 | 640 | 258 |
| 15 | Bridge | 1:52.07 | 626 | 252 |
| 16 | Mei Rummy-chan | 1:52.32 | 613 | 247 |
| 17 | Haunted Pleb | 1:53.32 | 600 | 242 |
| 18 | The Blue Fox | 1:53.84 | 588 | 237 |
| 19 | KnightBane | 1:53.97 | 576 | 232 |
| 20 | lefor0416 | 1:54.13 | 565 | 228 |
| 21 | REHERC | 1:54.27 | 553 | 223 |
| 22 | Tribow | 1:54.45 | 542 | 219 |
| 23 | cerberus❤ | 1:54.90 | 531 | 214 |
| 24 | Other XIX | 1:55.06 | 521 | 210 |
| 25 | notguts | 1:55.12 | 511 | 206 |
| 26 | XiQu3sT | 1:55.17 | 500 | 202 |
| 27 | Backgrounds' | 1:55.25 | 491 | 198 |
| 28 | darthbob555 | 1:55.31 | 481 | 194 |
| 29 | Hotride | 1:55.32 | 471 | 190 |
| 29 | DasGerippe | 1:55.32 | 471 | 190 |
| 31 | Seekr | 1:55.35 | 453 | 183 |
| 32 | Waonder | 1:55.39 | 444 | 179 |
| 33 | Sidewinder Fang | 1:55.44 | 435 | 175 |
| 34 | i0nTempest | 1:55.49 | 426 | 172 |
| 35 | Overlord | 1:55.58 | 417 | 168 |
| 36 | RenZõÓ | 1:55.67 | 409 | 165 |
| 36 | Jak | 1:55.67 | 409 | 165 |
| 38 | CrazyGamer742 | 1:55.68 | 392 | 158 |
| 39 | PinesOfChaos | 1:55.70 | 384 | 155 |
| 40 | Pelerin | 1:55.71 | 376 | 152 |
| 41 | ^1WᴀʀᴘWɪʀᴇ | 1:55.73 | 368 | 148 |
| 42 | paskautov | 1:55.79 | 360 | 145 |
| 43 | Californ1a | 1:55.86 | 352 | 142 |
| 44 | DisQorded | 1:55.90 | 345 | 139 |
| 45 | Nerf | 1:55.92 | 337 | 136 |
| 46 | Sensokaku | 1:55.98 | 330 | 133 |
| 46 | Ruslan145 | 1:55.98 | 330 | 133 |
| 48 | levinv270 | 1:55.99 | 315 | 127 |
| 49 | Puma D. Ace | 1:56.03 | 308 | 124 |
| 49 | mcatooch | 1:56.03 | 308 | 124 |
| 51 | FluffyTheZombii | 1:56.09 | 293 | 118 |
| 52 | SlowScan | 1:56.10 | 286 | 115 |
| 53 | ᒐᎯᎩᒐᎯ | 1:56.11 | 279 | 113 |
| 54 | Blu3 | 1:56.12 | 272 | 110 |
| 55 | Wourder | 1:56.15 | 266 | 107 |
| 55 | jason | 1:56.15 | 266 | 107 |
| 57 | burger | 1:56.20 | 252 | 102 |
| 58 | fentanyl lover <3 | 1:56.21 | 246 | 99 |
| 58 | HungryNarwhal | 1:56.21 | 246 | 99 |
| 60 | Epsilon_Knight | 1:56.25 | 232 | 94 |
| 61 | M500 | 1:56.26 | 226 | 91 |
| 61 | Ebeta2 | 1:56.26 | 226 | 91 |
| 63 | enyx | 1:56.33 | 213 | 86 |
| 64 | Lazarus | 1:56.37 | 207 | 83 |
| 65 | Gyodesis | 1:56.39 | 200 | 81 |
| 66 | Samn | 1:56.41 | 194 | 78 |
| 67 | Luminous | 1:56.42 | 188 | 76 |
| 67 | Aiko | 1:56.42 | 188 | 76 |
| 69 | baakstaff | 1:56.43 | 176 | 71 |
| 70 | ViryGo19 | 1:56.44 | 170 | 69 |
| 71 | Paparazzi | 1:56.45 | 164 | 66 |
| 72 | bogdan8938 | 1:56.48 | 158 | 64 |
| 72 | Latapi | 1:56.48 | 158 | 64 |
| 74 | Vondak | 1:56.50 | 146 | 59 |
| 75 | Nyfo | 1:56.51 | 140 | 56 |
| 76 | Wedel25 | 1:56.52 | 134 | 54 |
| 77 | Гвоздь | 1:56.53 | 129 | 52 |
| 77 | Crysest | 1:56.53 | 129 | 52 |
| 79 | [deleted] | 1:56.56 | 117 | 47 |
| 80 | EchoTrash ♀ (Alt) | 1:56.57 | 112 | 45 |
| 81 | gingerette95 | 1:56.59 | 106 | 43 |
| 82 | Lego™ Pipe-Bomb | 1:56.60 | 100 | 40 |
| 83 | Cadence | 1:56.61 | 95 | 38 |
| 83 | SP.01 | 1:56.61 | 95 | 38 |
| 83 | nrpsSword0 | 1:56.61 | 95 | 38 |
| 86 | TinFoilMkIV | 1:56.62 | 79 | 32 |
| 86 | Azure Zakura | 1:56.62 | 79 | 32 |
| 88 | Irotas | 1:56.63 | 68 | 27 |
| 88 | Armanlex | 1:56.63 | 68 | 27 |
| 90 | HyperNova | 1:56.64 | 57 | 23 |
| 91 | Seversol | 1:56.65 | 52 | 21 |
| 91 | Vyz | 1:56.65 | 52 | 21 |
| 93 | SneakyBombsuit | 1:56.67 | 41 | 17 |
| 93 | JustSolLotus | 1:56.67 | 41 | 17 |
| 95 | TerraHawk | 1:56.68 | 31 | 13 |
| 96 | Jappen | 1:56.69 | 26 | 10 |
| 97 | Ennik | 1:56.70 | 21 | 8 |
| 98 | Asinay | 1:56.71 | 16 | 6 |
| 99 | Aquila | 1:56.74 | 11 | 4 |
| 99 | GLUBBA | 1:56.74 | 11 | 4 |
| 101 | Woren | 1:56.78 | 0 | 0 |
| 102 | Neppy- | 1:56.79 | 0 | 0 |
| 102 | RevaN | 1:56.79 | 0 | 0 |
| 102 | Melliya/芽璃夜 | 1:56.79 | 0 | 0 |
| 105 | Azure | 1:56.80 | 0 | 0 |
| 106 | PuppySky | 1:56.81 | 0 | 0 |
| 107 | Neko14789 | 1:56.82 | 0 | 0 |
| 108 | Mac_SirBlickith | 1:56.83 | 0 | 0 |
| 109 | sparx041 | 1:56.84 | 0 | 0 |
| 110 | Dimitri | 1:56.85 | 0 | 0 |
| 110 | ZedAxiom | 1:56.85 | 0 | 0 |
| 112 | DefenderOfHyrule | 1:56.86 | 0 | 0 |
| 113 | Kaliphear | 1:56.87 | 0 | 0 |
| 114 | toasT | 1:56.89 | 0 | 0 |
| 115 | Zineth101 | 1:56.92 | 0 | 0 |
| 115 | Minecraft-pro | 1:56.92 | 0 | 0 |
| 117 | JDthe3rd | 1:56.93 | 0 | 0 |
| 118 | Siddey10 | 1:56.96 | 0 | 0 |
| 119 | Razgriez | 1:56.97 | 0 | 0 |
| 120 | Spoon | 1:57.00 | 0 | 0 |
| 121 | G9 | 1:57.01 | 0 | 0 |
| 121 | CactusJack | 1:57.01 | 0 | 0 |
| 123 | Jupotus | 1:57.04 | 0 | 0 |
| 123 | Suspect | 1:57.04 | 0 | 0 |
| 125 | Mr. $7.63 | 1:57.05 | 0 | 0 |
| 126 | trigger_segfault | 1:57.07 | 0 | 0 |
| 127 | maximumfox | 1:57.09 | 0 | 0 |
| 127 | Jeebus | 1:57.09 | 0 | 0 |
| 129 | Inzarin | 1:57.12 | 0 | 0 |
| 129 | Bistdocs | 1:57.12 | 0 | 0 |
| 129 | Alrunes | 1:57.12 | 0 | 0 |
| 132 | McFolt | 1:57.13 | 0 | 0 |
| 132 | NuggetTheBigBoi | 1:57.13 | 0 | 0 |
| 132 | A Moldy Orange | 1:57.13 | 0 | 0 |
| 135 | Sulfer-The-Cλt | 1:57.14 | 0 | 0 |
| 135 | Hell Hound | 1:57.14 | 0 | 0 |
| 135 | Cancer Liquid | 1:57.14 | 0 | 0 |
| 138 | Krispy | 1:57.15 | 0 | 0 |
| 138 | JaServus | 1:57.15 | 0 | 0 |
| 138 | Xeno146 | 1:57.15 | 0 | 0 |
| 138 | LeFluffySquirrel | 1:57.15 | 0 | 0 |
| 142 | Iggulden | 1:57.20 | 0 | 0 |
| 143 | Apocalyptic Bunny | 1:57.21 | 0 | 0 |
| 144 | AFRQDED | 1:57.23 | 0 | 0 |
| 144 | Juispch | 1:57.23 | 0 | 0 |
| 146 | ant | 1:57.24 | 0 | 0 |
| 146 | Sky_ | 1:57.24 | 0 | 0 |
| 148 | Windsjorn | 1:57.26 | 0 | 0 |
| 148 | Goo4u | 1:57.26 | 0 | 0 |
| 150 | rz | 1:57.27 | 0 | 0 |
| 150 | ShadySquares | 1:57.27 | 0 | 0 |
| 152 | Jarek718 | 1:57.28 | 0 | 0 |
| 152 | Agent-Cryspy | 1:57.28 | 0 | 0 |
| 152 | Meda | 1:57.28 | 0 | 0 |
| 155 | Pompous Whale | 1:57.29 | 0 | 0 |
| 155 | Shady Inktail | 1:57.29 | 0 | 0 |
| 155 | BishopAdams | 1:57.29 | 0 | 0 |
| 158 | MP X10L | 1:57.30 | 0 | 0 |
| 158 | Monark10 | 1:57.30 | 0 | 0 |
| 160 | bacon | 1:57.31 | 0 | 0 |
| 160 | 4onen | 1:57.31 | 0 | 0 |
| 162 | Razzr | 1:57.32 | 0 | 0 |
| 162 | CeruleanAzura | 1:57.32 | 0 | 0 |
| 164 | Shin Kamen Red | 1:57.33 | 0 | 0 |
| 164 | Mamuuh | 1:57.33 | 0 | 0 |
| 164 | Edragon13 | 1:57.33 | 0 | 0 |
| 167 | Manatee | 1:57.34 | 0 | 0 |
| 167 | tortulaluna | 1:57.34 | 0 | 0 |
| 169 | Alopex | 1:57.35 | 0 | 0 |
| 170 | Blahaj Blast | 1:57.36 | 0 | 0 |
| 170 | Chipboard | 1:57.36 | 0 | 0 |
| 170 | Crespojazzman | 1:57.36 | 0 | 0 |
| 173 | Taelu | 1:57.37 | 0 | 0 |
| 174 | ash | 1:57.38 | 0 | 0 |
| 174 | NoBody | 1:57.38 | 0 | 0 |
| 174 | Maxter Max | 1:57.38 | 0 | 0 |
| 174 | Vixen | 1:57.38 | 0 | 0 |
| 174 | Azur-Lane | 1:57.38 | 0 | 0 |
| 179 | CrazyMaurice120 | 1:57.40 | 0 | 0 |
| 179 | James "Papa Het" Hetfield | 1:57.40 | 0 | 0 |
| 181 | The K-man | 1:57.41 | 0 | 0 |
| 181 | Wolf Black | 1:57.41 | 0 | 0 |
| 183 | Dislin | 1:57.42 | 0 | 0 |
| 183 | NeonChaosAwoo | 1:57.42 | 0 | 0 |
| 183 | Dreigo | 1:57.42 | 0 | 0 |
| 186 | ahtnos | 1:57.44 | 0 | 0 |
| 187 | Birb | 1:57.45 | 0 | 0 |
| 187 | Swash | 1:57.45 | 0 | 0 |
| 187 | L_28 | 1:57.45 | 0 | 0 |
| 190 | Mr.Scouty [ESP] | 1:57.48 | 0 | 0 |
| 191 | [BIT]IroncladWarbear | 1:57.51 | 0 | 0 |
| 191 | Avel | 1:57.51 | 0 | 0 |
| 193 | iHaveAwfulIdeas | 1:57.52 | 0 | 0 |
| 194 | Bytesmee | 1:57.53 | 0 | 0 |
| 194 | A very silly man indeed | 1:57.53 | 0 | 0 |
| 194 | Sappytron | 1:57.53 | 0 | 0 |
| 197 | Knight of Boletaria | 1:57.54 | 0 | 0 |
| 197 | [deleted] | 1:57.54 | 0 | 0 |
| 199 | Mr. Doggy | 1:57.55 | 0 | 0 |
| 199 | TheGamingAnt55 | 1:57.55 | 0 | 0 |
| 199 | Samoyed | 1:57.55 | 0 | 0 |
| 199 | Skrigar | 1:57.55 | 0 | 0 |
| 203 | TheHarmassist | 1:57.56 | 0 | 0 |
| 203 | GamerBojac | 1:57.56 | 0 | 0 |
| 205 | e⁻ | 1:57.57 | 0 | 0 |
| 205 | Underliinez | 1:57.57 | 0 | 0 |
| 205 | C4tch | 1:57.57 | 0 | 0 |
| 208 | Sogram | 1:57.58 | 0 | 0 |
| 209 | Erik | 1:57.59 | 0 | 0 |
| 209 | Readek | 1:57.59 | 0 | 0 |
| 209 | Inecrodeus | 1:57.59 | 0 | 0 |
| 212 | RaiderZulu | 1:57.60 | 0 | 0 |
| 212 | JayBoneJay | 1:57.60 | 0 | 0 |
| 212 | Finorza | 1:57.60 | 0 | 0 |
| 212 | Jezo | 1:57.60 | 0 | 0 |
| 216 | Sunnydan | 1:57.61 | 0 | 0 |
| 217 | Dutesao | 1:57.62 | 0 | 0 |
| 217 | TheEvilMidnightBomber | 1:57.62 | 0 | 0 |
| 219 | NicholasKB19 | 1:57.63 | 0 | 0 |
| 220 | LivingWithGames | 1:57.64 | 0 | 0 |
| 220 | CHAINSAW MONKEY! | 1:57.64 | 0 | 0 |
| 220 | Rob_bie_n_Blair | 1:57.64 | 0 | 0 |
| 223 | Toby | 1:57.65 | 0 | 0 |
| 223 | PlatinumAstra | 1:57.65 | 0 | 0 |
| 223 | Battle Banana Chris Handsom | 1:57.65 | 0 | 0 |
| 226 | Gregg the Grim Reaper | 1:57.66 | 0 | 0 |
| 226 | Topaz95 | 1:57.66 | 0 | 0 |
| 228 | Screech1992 | 1:57.67 | 0 | 0 |
| 228 | Ktee | 1:57.67 | 0 | 0 |
| 228 | TidalSeashell | 1:57.67 | 0 | 0 |
| 231 | Wolf | 1:57.68 | 0 | 0 |
| 232 | Jesster | 1:57.69 | 0 | 0 |
| 232 | Almbrothers | 1:57.69 | 0 | 0 |
| 234 | Snakefalls | 1:57.70 | 0 | 0 |
| 235 | I'm so sorry | 1:57.71 | 0 | 0 |
| 235 | Tuli | 1:57.71 | 0 | 0 |
| 237 | Turo | 1:57.72 | 0 | 0 |
| 237 | Kai | 1:57.72 | 0 | 0 |
| 237 | Greywolfe | 1:57.72 | 0 | 0 |
| 237 | Jam0344 | 1:57.72 | 0 | 0 |
| 237 | Сum cumыч | 1:57.72 | 0 | 0 |
| 242 | Ivoryshovel | 1:57.74 | 0 | 0 |
| 242 | Rhetorical Question | 1:57.74 | 0 | 0 |
| 244 | Mafn | 1:57.75 | 0 | 0 |
| 244 | Mr. Bird | 1:57.75 | 0 | 0 |
| 244 | codename_rb | 1:57.75 | 0 | 0 |
| 244 | Fumeijoe | 1:57.75 | 0 | 0 |
| 248 | Striker25 | 1:57.76 | 0 | 0 |
| 249 | Glock Lobter | 1:57.79 | 0 | 0 |
| 249 | PowaRanja | 1:57.79 | 0 | 0 |
| 249 | HJQLF | 1:57.79 | 0 | 0 |
| 252 | rbrules | 1:57.80 | 0 | 0 |
| 252 | Captain Phlarper | 1:57.80 | 0 | 0 |
| 254 | Darwinia | 1:57.81 | 0 | 0 |
| 255 | Emil | 1:57.82 | 0 | 0 |
| 256 | elSamu | 1:57.84 | 0 | 0 |
| 256 | John Fish | 1:57.84 | 0 | 0 |
| 256 | Хз Ястреб | 1:57.84 | 0 | 0 |
| 259 | TheBigMemer7 | 1:57.85 | 0 | 0 |
| 259 | ADamnDerpName | 1:57.85 | 0 | 0 |
| 259 | Quantum Glitch | 1:57.85 | 0 | 0 |
| 259 | Kincaid | 1:57.85 | 0 | 0 |
| 263 | Frooj | 1:57.86 | 0 | 0 |
| 263 | Darth Sand | 1:57.86 | 0 | 0 |
| 265 | Exoman | 1:57.87 | 0 | 0 |
| 265 | Magnowser | 1:57.87 | 0 | 0 |
| 265 | JohnCorby | 1:57.87 | 0 | 0 |
| 265 | TheMelonGod | 1:57.87 | 0 | 0 |
| 265 | LNTC | 1:57.87 | 0 | 0 |
| 270 | Western Ice Noodle | 1:57.88 | 0 | 0 |
| 271 | Dekoa | 1:57.89 | 0 | 0 |
| 271 | succe | 1:57.89 | 0 | 0 |
| 271 | Ribbitt | 1:57.89 | 0 | 0 |
| 271 | TheWanderer05 | 1:57.89 | 0 | 0 |
| 275 | A1R™ | 1:57.90 | 0 | 0 |
| 276 | Defiance_LLK | 1:57.91 | 0 | 0 |
| 276 | Umbrasbane | 1:57.91 | 0 | 0 |
| 276 | CodedCrow | 1:57.91 | 0 | 0 |
| 279 | DPftw | 1:57.92 | 0 | 0 |
| 280 | The Unusual Suspect | 1:57.93 | 0 | 0 |
| 280 | nickolaij | 1:57.93 | 0 | 0 |
| 280 | Smuggler_ | 1:57.93 | 0 | 0 |
| 280 | racing like a pisshorse | 1:57.93 | 0 | 0 |
| 284 | DvN | 1:57.94 | 0 | 0 |
| 284 | Blue Comet | 1:57.94 | 0 | 0 |
| 284 | Ren-Ren | 1:57.94 | 0 | 0 |
| 284 | toniqe53 | 1:57.94 | 0 | 0 |
| 288 | torcht | 1:57.95 | 0 | 0 |
| 288 | NK - Néko | 1:57.95 | 0 | 0 |
| 288 | abseth | 1:57.95 | 0 | 0 |
| 291 | Delhjiko | 1:57.96 | 0 | 0 |
| 291 | Player145 | 1:57.96 | 0 | 0 |
| 293 | IA | 1:57.97 | 0 | 0 |
| 293 | Quirked-up White Boy | 1:57.97 | 0 | 0 |
| 293 | PurpleSuede | 1:57.97 | 0 | 0 |
| 296 | solar | 1:57.98 | 0 | 0 |
| 297 | Sky Captain | 1:58.00 | 0 | 0 |
| 297 | Pacific RimJob | 1:58.00 | 0 | 0 |
| 297 | Twinzninja | 1:58.00 | 0 | 0 |
| 300 | kriz_chan | 1:58.01 | 0 | 0 |
| 301 | QuasarSevilla | 1:58.02 | 0 | 0 |
| 301 | Eagl3 | 1:58.02 | 0 | 0 |
| 303 | Vash | 1:58.03 | 0 | 0 |
| 303 | Bios | 1:58.03 | 0 | 0 |
| 303 | Ramalis | 1:58.03 | 0 | 0 |
| 303 | Samus_Link | 1:58.03 | 0 | 0 |
| 307 | ( 3 ) | 1:58.04 | 0 | 0 |
| 308 | cyace | 1:58.05 | 0 | 0 |
| 308 | Osbob | 1:58.05 | 0 | 0 |
| 310 | IanRosk | 1:58.06 | 0 | 0 |
| 310 | Dinnis | 1:58.06 | 0 | 0 |
| 310 | VORCHAX | 1:58.06 | 0 | 0 |
| 313 | Silver~ | 1:58.07 | 0 | 0 |
| 313 | Dr. Weaver | 1:58.07 | 0 | 0 |
| 313 | GTNeon | 1:58.07 | 0 | 0 |
| 313 | Hirochi | 1:58.07 | 0 | 0 |
| 317 | itsukarine | 1:58.09 | 0 | 0 |
| 317 | Sugoi-desu (⊙‿⊙✿) | 1:58.09 | 0 | 0 |
| 317 | Razzle | 1:58.09 | 0 | 0 |
| 317 | Sh99er | 1:58.09 | 0 | 0 |
| 317 | Kalimbato | 1:58.09 | 0 | 0 |
| 322 | a&b | 1:58.10 | 0 | 0 |
| 323 | Tem | 1:58.11 | 0 | 0 |
| 324 | RobloxUwU | 1:58.12 | 0 | 0 |
| 324 | Chaks | 1:58.12 | 0 | 0 |
| 324 | Crimson Blood | 1:58.12 | 0 | 0 |
| 324 | puter #MTWD | 1:58.12 | 0 | 0 |
| 324 | Dracheron | 1:58.12 | 0 | 0 |
| 324 | TP-N.co PC-118 B-10001110101 | 1:58.12 | 0 | 0 |
| 330 | Embylles | 1:58.13 | 0 | 0 |
| 330 | Ugly Bastard | 1:58.13 | 0 | 0 |
| 330 | to saw a sponge bob saw | 1:58.13 | 0 | 0 |
| 333 | bbw warrior | 1:58.14 | 0 | 0 |
| 333 | DecentM | 1:58.14 | 0 | 0 |
| 335 | Ohnoitsmangofett | 1:58.15 | 0 | 0 |
| 335 | AirTech | 1:58.15 | 0 | 0 |
| 337 | Raiden925 | 1:58.16 | 0 | 0 |
| 337 | NIRV007 | 1:58.16 | 0 | 0 |
| 339 | LachenJager | 1:58.17 | 0 | 0 |
| 339 | SenseofCLouD | 1:58.17 | 0 | 0 |
| 339 | Super_Shadow57 | 1:58.17 | 0 | 0 |
| 339 | Nitrium | 1:58.17 | 0 | 0 |
| 339 | Dosilox | 1:58.17 | 0 | 0 |
| 344 | mist | 1:58.18 | 0 | 0 |
| 344 | Yarimi | 1:58.18 | 0 | 0 |
| 346 | spzi | 1:58.19 | 0 | 0 |
| 346 | Spacefarer | 1:58.19 | 0 | 0 |
| 346 | Rylond | 1:58.19 | 0 | 0 |
| 346 | LobaDK | 1:58.19 | 0 | 0 |
| 350 | Sébastien Lecornu II | 1:58.20 | 0 | 0 |
| 351 | khrisround2 | 1:58.21 | 0 | 0 |
| 351 | minionmom82 | 1:58.21 | 0 | 0 |
| 351 | Retromancer | 1:58.21 | 0 | 0 |
| 354 | vermin "verminium" supreme | 1:58.22 | 0 | 0 |
| 354 | Skye! | 1:58.22 | 0 | 0 |
| 356 | S.Kappelmann | 1:58.23 | 0 | 0 |
| 356 | Simon Evo | 1:58.23 | 0 | 0 |
| 356 | FiaLilium | 1:58.23 | 0 | 0 |
| 356 | TTV CaedVT | 1:58.23 | 0 | 0 |
| 356 | blue42u | 1:58.23 | 0 | 0 |
| 361 | KWP | 1:58.24 | 0 | 0 |
| 361 | Mar_Veloz | 1:58.24 | 0 | 0 |
| 363 | Chase | 1:58.25 | 0 | 0 |
| 364 | SlashRecon | 1:58.26 | 0 | 0 |
| 365 | Ryukiza | 1:58.27 | 0 | 0 |
| 365 | Silverfeelin | 1:58.27 | 0 | 0 |
| 365 | mammles | 1:58.27 | 0 | 0 |
| 365 | NyctoGT | 1:58.27 | 0 | 0 |
| 365 | Moonie | 1:58.27 | 0 | 0 |
| 370 | Curious Fish | 1:58.28 | 0 | 0 |
| 370 | Schneidog | 1:58.28 | 0 | 0 |
| 372 | onyxglow | 1:58.29 | 0 | 0 |
| 372 | replikaeyes | 1:58.29 | 0 | 0 |
| 374 | Gnarrang | 1:58.30 | 0 | 0 |
| 375 | Shaka | 1:58.31 | 0 | 0 |
| 375 | Xyte | 1:58.31 | 0 | 0 |
| 377 | pcl219 | 1:58.34 | 0 | 0 |
| 377 | Lilac | 1:58.34 | 0 | 0 |
| 377 | Edelgard von Hresvelg | 1:58.34 | 0 | 0 |
| 377 | Tanzanite_NR | 1:58.34 | 0 | 0 |
| 381 | The Metric System | 1:58.35 | 0 | 0 |
| 381 | // Vaffe | 1:58.35 | 0 | 0 |
| 381 | Jarminx | 1:58.35 | 0 | 0 |
| 384 | Filounderstover | 1:58.36 | 0 | 0 |
| 385 | sour | 1:58.38 | 0 | 0 |
| 385 | StrongBad | 1:58.38 | 0 | 0 |
| 385 | maple | 1:58.38 | 0 | 0 |
| 385 | Algol | 1:58.38 | 0 | 0 |
| 385 | Idle Asides | 1:58.38 | 0 | 0 |
| 390 | SiLeX | 1:58.39 | 0 | 0 |
| 390 | Shadiest | 1:58.39 | 0 | 0 |
| 392 | yrraH | 1:58.40 | 0 | 0 |
| 393 | Pseudocue | 1:58.41 | 0 | 0 |
| 393 | ranger481 | 1:58.41 | 0 | 0 |
| 395 | Renota | 1:58.42 | 0 | 0 |
| 395 | SX64 | 1:58.42 | 0 | 0 |
| 397 | Cyxxus | 1:58.43 | 0 | 0 |
| 398 | The Big Purple | 1:58.44 | 0 | 0 |
| 399 | CuddleStrike | 1:58.45 | 0 | 0 |
| 399 | dame.najdov | 1:58.45 | 0 | 0 |
| 399 | < blank > | 1:58.45 | 0 | 0 |
| 402 | S.C.N.A | 1:58.46 | 0 | 0 |
| 403 | Pherouzs | 1:58.47 | 0 | 0 |
| 403 | Amonera | 1:58.47 | 0 | 0 |
| 403 | Negaprion | 1:58.47 | 0 | 0 |
| 406 | cuba | 1:58.48 | 0 | 0 |
| 406 | Shrapnel Blatner | 1:58.48 | 0 | 0 |
| 406 | Lethologica7 | 1:58.48 | 0 | 0 |
| 409 | infomercial | 1:58.50 | 0 | 0 |
| 409 | ATOM | 1:58.50 | 0 | 0 |
| 411 | Ruinoterapevt | 1:58.51 | 0 | 0 |
| 412 | Red | 1:58.52 | 0 | 0 |
| 412 | lift your tail for me | 1:58.52 | 0 | 0 |
| 412 | Mr_Lego4 | 1:58.52 | 0 | 0 |
| 415 | Tesselode | 1:58.53 | 0 | 0 |
| 415 | Neofall | 1:58.53 | 0 | 0 |
| 417 | NaterrTheBull | 1:58.54 | 0 | 0 |
| 417 | Тайно дёргал | 1:58.54 | 0 | 0 |
| 419 | Ozymandias | 1:58.55 | 0 | 0 |
| 420 | Twitch | 1:58.56 | 0 | 0 |
| 420 | ReformingMoth67 | 1:58.56 | 0 | 0 |
| 420 | corvushereje | 1:58.56 | 0 | 0 |
| 423 | FifteenBread | 1:58.57 | 0 | 0 |
| 424 | skuzzzy | 1:58.58 | 0 | 0 |
| 424 | Naikel [FR] | 1:58.58 | 0 | 0 |
| 424 | Pardalote | 1:58.58 | 0 | 0 |
| 424 | Cptnbean | 1:58.58 | 0 | 0 |
| 424 | Horstron | 1:58.58 | 0 | 0 |
| 424 | 25 минут кайфа | 1:58.58 | 0 | 0 |
| 430 | [TSA] Siggi | 1:58.60 | 0 | 0 |
| 431 | Joan6694 | 1:58.61 | 0 | 0 |
| 431 | one singular jerboa | 1:58.61 | 0 | 0 |
| 431 | MortuaryPeep | 1:58.61 | 0 | 0 |
| 431 | sugoiangela | 1:58.61 | 0 | 0 |
| 431 | DobreBobre | 1:58.61 | 0 | 0 |
| 436 | NoraNoShika | 1:58.63 | 0 | 0 |
| 437 | Sleepy boi | 1:58.64 | 0 | 0 |
| 437 | CrowFeather | 1:58.64 | 0 | 0 |
| 437 | Warriot | 1:58.64 | 0 | 0 |
| 440 | Razanger | 1:58.65 | 0 | 0 |
| 440 | citysun | 1:58.65 | 0 | 0 |
| 440 | ketikidistv | 1:58.65 | 0 | 0 |
| 443 | STStarkMB | 1:58.66 | 0 | 0 |
| 443 | trabrew | 1:58.66 | 0 | 0 |
| 443 | Polaris | 1:58.66 | 0 | 0 |
| 443 | hrkothe | 1:58.66 | 0 | 0 |
| 447 | Opprop | 1:58.67 | 0 | 0 |
| 447 | Tkach | 1:58.67 | 0 | 0 |
| 449 | SauronGamer | 1:58.68 | 0 | 0 |
| 450 | pigpenguin | 1:58.69 | 0 | 0 |
| 450 | Corecii | 1:58.69 | 0 | 0 |
| 450 | jmdajm7 | 1:58.69 | 0 | 0 |
| 450 | zombieassaultman | 1:58.69 | 0 | 0 |
| 450 | WiteNite | 1:58.69 | 0 | 0 |
| 455 | Enso | 1:58.70 | 0 | 0 |
| 455 | Jojimbo | 1:58.70 | 0 | 0 |
| 455 | Verendus | 1:58.70 | 0 | 0 |
| 458 | Firestix | 1:58.71 | 0 | 0 |
| 459 | Zephyr | 1:58.72 | 0 | 0 |
| 459 | Nickel | 1:58.72 | 0 | 0 |
| 461 | speed | 1:58.73 | 0 | 0 |
| 462 | Xenobyte | 1:58.75 | 0 | 0 |
| 463 | kildert5 | 1:58.77 | 0 | 0 |
| 464 | HISKI LP | 1:58.78 | 0 | 0 |
| 464 | xanthousphoenix | 1:58.78 | 0 | 0 |
| 464 | Gloþ | 1:58.78 | 0 | 0 |
| 464 | Jayforbe | 1:58.78 | 0 | 0 |
| 464 | VI_fizz | 1:58.78 | 0 | 0 |
| 469 | Xheptor | 1:58.81 | 0 | 0 |
| 470 | Laryk | 1:58.82 | 0 | 0 |
| 470 | Tea | 1:58.82 | 0 | 0 |
| 470 | krizithy | 1:58.82 | 0 | 0 |
| 473 | Mud | 1:58.84 | 0 | 0 |
| 473 | MystykZ | 1:58.84 | 0 | 0 |
| 473 | Holo | 1:58.84 | 0 | 0 |
| 473 | BulletRain23 | 1:58.84 | 0 | 0 |
| 477 | Tavere | 1:58.85 | 0 | 0 |
| 478 | CampingCarl | 1:58.87 | 0 | 0 |
| 478 | Kosvid | 1:58.87 | 0 | 0 |
| 478 | MtryOutlander | 1:58.87 | 0 | 0 |
| 481 | FieryIce | 1:58.88 | 0 | 0 |
| 482 | The [SVK] | 1:58.89 | 0 | 0 |
| 483 | Dubblr | 1:58.92 | 0 | 0 |
| 483 | Joefoe3579 | 1:58.92 | 0 | 0 |
| 483 | DieselFace | 1:58.92 | 0 | 0 |
| 486 | Cody | 1:58.94 | 0 | 0 |
| 486 | Mattock | 1:58.94 | 0 | 0 |
| 488 | Jester Thomas | 1:58.95 | 0 | 0 |
| 489 | FRX | 1:58.96 | 0 | 0 |
| 489 | sizifov | 1:58.96 | 0 | 0 |
| 491 | cfr34k | 1:58.97 | 0 | 0 |
| 491 | Amuzet | 1:58.97 | 0 | 0 |
| 491 | fokUshima | 1:58.97 | 0 | 0 |
| 494 | Nico | 1:58.98 | 0 | 0 |
| 494 | BlacKat | 1:58.98 | 0 | 0 |
| 494 | dryco | 1:58.98 | 0 | 0 |
| 494 | Deathhim | 1:58.98 | 0 | 0 |
| 498 | MasterJedi2014 | 1:58.99 | 0 | 0 |
| 499 | BootyRuckus | 1:59.03 | 0 | 0 |
| 499 | Cyandic | 1:59.03 | 0 | 0 |
| 501 | littlebutts | 1:59.04 | 0 | 0 |
| 501 | deox | 1:59.04 | 0 | 0 |
| 501 | ThanksForNothing | 1:59.04 | 0 | 0 |
| 504 | Ahhrealpeople | 1:59.05 | 0 | 0 |
| 505 | Boucoque | 1:59.06 | 0 | 0 |
| 505 | Chifra | 1:59.06 | 0 | 0 |
| 507 | 2Infinity&Evil | 1:59.07 | 0 | 0 |
| 507 | Zombie | 1:59.07 | 0 | 0 |
| 509 | PathToV1ctory | 1:59.08 | 0 | 0 |
| 509 | CheesyCherd | 1:59.08 | 0 | 0 |
| 511 | CrazyPass | 1:59.09 | 0 | 0 |
| 512 | DrSexyMD | 1:59.10 | 0 | 0 |
| 512 | Emerald_Pick | 1:59.10 | 0 | 0 |
| 514 | sendthefish | 1:59.11 | 0 | 0 |
| 515 | Fussel | 1:59.13 | 0 | 0 |
| 515 | NICE7EN | 1:59.13 | 0 | 0 |
| 517 | TailsDoll | 1:59.14 | 0 | 0 |
| 518 | Abnormal Cybran | 1:59.15 | 0 | 0 |
| 519 | Mr Elusive | 1:59.16 | 0 | 0 |
| 519 | Industrial_AI | 1:59.16 | 0 | 0 |
| 521 | Blushy Wushy | 1:59.17 | 0 | 0 |
| 521 | rocketdriverexp | 1:59.17 | 0 | 0 |
| 523 | Fiefio | 1:59.18 | 0 | 0 |
| 523 | Spotfire | 1:59.18 | 0 | 0 |
| 525 | Ravicale | 1:59.19 | 0 | 0 |
| 526 | Paranoia | 1:59.20 | 0 | 0 |
| 526 | Snyde | 1:59.20 | 0 | 0 |
| 528 | vorador2 | 1:59.21 | 0 | 0 |
| 529 | S2riker | 1:59.22 | 0 | 0 |
| 529 | Machine Entity | 1:59.22 | 0 | 0 |
| 531 | flo | 1:59.24 | 0 | 0 |
| 532 | Uganda Knuckles | 1:59.27 | 0 | 0 |
| 533 | Psychlone | 1:59.28 | 0 | 0 |
| 533 | Rodd Raxter | 1:59.28 | 0 | 0 |
| 535 | BluntButters | 1:59.29 | 0 | 0 |
| 535 | tigerchef123 | 1:59.29 | 0 | 0 |
| 535 | G5TNo2486 | 1:59.29 | 0 | 0 |
| 535 | Knowka | 1:59.29 | 0 | 0 |
| 539 | TheEPROM9 LaTeX | 1:59.30 | 0 | 0 |
| 539 | Aotia | Qubic | 1:59.30 | 0 | 0 |
| 541 | Shroom | 1:59.32 | 0 | 0 |
| 542 | Oldman | 1:59.33 | 0 | 0 |
| 542 | NotANub | 1:59.33 | 0 | 0 |
| 544 | LaserScheme | 1:59.34 | 0 | 0 |
| 544 | Qioury | 1:59.34 | 0 | 0 |
| 544 | PartTimeCanadian | 1:59.34 | 0 | 0 |
| 544 | herz93 | 1:59.34 | 0 | 0 |
| 548 | Pryzee7 | 1:59.35 | 0 | 0 |
| 549 | otterboros | 1:59.36 | 0 | 0 |
| 549 | DaBlazeMann | 1:59.36 | 0 | 0 |
| 549 | blackmaester | 1:59.36 | 0 | 0 |
| 552 | Destrudo | 1:59.39 | 0 | 0 |
| 553 | Benji | 1:59.42 | 0 | 0 |
| 554 | SukairenTTV | 1:59.43 | 0 | 0 |
| 554 | Luis Glacius | 1:59.43 | 0 | 0 |
| 554 | HeavenTrain | 1:59.43 | 0 | 0 |
| 557 | MLGSOLAIRENOSCOPE360PRAISEIT420 | 1:59.44 | 0 | 0 |
| 557 | Ardent | 1:59.44 | 0 | 0 |
| 559 | StЗamGear | 1:59.45 | 0 | 0 |
| 559 | XLgeneral | 1:59.45 | 0 | 0 |
| 561 | Zilliz | 1:59.46 | 0 | 0 |
| 562 | Thrillog The Wizard | 1:59.47 | 0 | 0 |
| 563 | Chaos Titan | 1:59.49 | 0 | 0 |
| 564 | Warkin Iskander Volselli | 1:59.50 | 0 | 0 |
| 564 | "ORION | 1:59.50 | 0 | 0 |
| 566 | Neon_Shift | 1:59.52 | 0 | 0 |
| 567 | LittleKittyArtemis | 1:59.55 | 0 | 0 |
| 568 | Treme | 1:59.57 | 0 | 0 |
| 568 | markschuurman1990 | 1:59.57 | 0 | 0 |
| 568 | bogassado | 1:59.57 | 0 | 0 |
| 571 | Gilmayne | 1:59.58 | 0 | 0 |
| 571 | Dio | 1:59.58 | 0 | 0 |
| 573 | Nitroshoes | 1:59.59 | 0 | 0 |
| 573 | GEM Gaming | 1:59.59 | 0 | 0 |
| 575 | Sokkero | 1:59.61 | 0 | 0 |
| 575 | UnFefeSauvage | 1:59.61 | 0 | 0 |
| 575 | Zeta | 1:59.61 | 0 | 0 |
| 578 | Raynland McNuggets | 1:59.62 | 0 | 0 |
| 579 | jetknife | 1:59.67 | 0 | 0 |
| 580 | Sir Johan | 1:59.68 | 0 | 0 |
| 580 | Nemesis | 1:59.68 | 0 | 0 |
| 582 | Da Doom Man | 1:59.70 | 0 | 0 |
| 582 | Nookie | 1:59.70 | 0 | 0 |
| 582 | |SPQR| Toruk | 1:59.70 | 0 | 0 |
| 585 | YoloMoth | 1:59.71 | 0 | 0 |
| 585 | Waymint | 1:59.71 | 0 | 0 |
| 587 | Mallow | 1:59.72 | 0 | 0 |
| 588 | TartanKitty773 | 1:59.73 | 0 | 0 |
| 589 | supersmily5 | 1:59.74 | 0 | 0 |
| 590 | Richard | 1:59.78 | 0 | 0 |
| 590 | RagingPoet | 1:59.78 | 0 | 0 |
| 590 | PineFreshGuy | 1:59.78 | 0 | 0 |
| 593 | FlangEG | 1:59.79 | 0 | 0 |
| 593 | Maszo Pok | 1:59.79 | 0 | 0 |
| 595 | Alexander | 1:59.80 | 0 | 0 |
| 595 | Reinforce Virta | 1:59.80 | 0 | 0 |
| 595 | CoJo12 | 1:59.80 | 0 | 0 |
| 598 | Ame | 1:59.81 | 0 | 0 |
| 598 | Hunter | 1:59.81 | 0 | 0 |
| 600 | poetteringd | 1:59.82 | 0 | 0 |
| 600 | Vegetable Broth | 1:59.82 | 0 | 0 |
| 602 | Defect | 1:59.83 | 0 | 0 |
| 602 | DODGER MDXC | 1:59.83 | 0 | 0 |
| 604 | Winter's Crescendo | 1:59.88 | 0 | 0 |
| 605 | Xandrak | 1:59.89 | 0 | 0 |
| 606 | TheIllusiveGreg | 1:59.90 | 0 | 0 |
| 606 | Diabetis4life | 1:59.90 | 0 | 0 |
| 608 | Mr. Grizz | 1:59.91 | 0 | 0 |
| 609 | Prof. Pinwheel | 1:59.93 | 0 | 0 |
| 610 | Hungolomghononoloughongous | 1:59.94 | 0 | 0 |
| 611 | Chris | 1:59.95 | 0 | 0 |
| 611 | I SMASH ROCKS | 1:59.95 | 0 | 0 |
| 611 | FrostCorp | 1:59.95 | 0 | 0 |
| 614 | mlk | 1:59.96 | 0 | 0 |
| 614 | Go Fish | 1:59.96 | 0 | 0 |
| 616 | Smish | 1:59.98 | 0 | 0 |
| 616 | ReallyDumbFox | 1:59.98 | 0 | 0 |
| 618 | Mega Mike 70 | 1:59.99 | 0 | 0 |
| 619 | GrYs | 2:00.00 | 0 | 0 |
| 619 | Lesae Ephu | 2:00.00 | 0 | 0 |
| 621 | Neu | 2:00.02 | 0 | 0 |
| 621 | cuts | 2:00.02 | 0 | 0 |
| 621 | Phaazed | 2:00.02 | 0 | 0 |
| 624 | MyurrDurr | 2:00.04 | 0 | 0 |
| 625 | SirDan | 2:00.10 | 0 | 0 |
| 626 | MAT D.R.⎛⎝≥⏝⏝≤⎠⎞ | 2:00.12 | 0 | 0 |
| 627 | Meanguy6050 | 2:00.15 | 0 | 0 |
| 628 | Žydras | 2:00.17 | 0 | 0 |
| 629 | BrandonK-TN | 2:00.19 | 0 | 0 |
| 630 | Battle00333 | 2:00.20 | 0 | 0 |
| 630 | Lud | Forest | 2:00.20 | 0 | 0 |
| 632 | fischpferd | 2:00.23 | 0 | 0 |
| 632 | lesbiancannibalism399396 | 2:00.23 | 0 | 0 |
| 634 | Songbird | 2:00.24 | 0 | 0 |
| 635 | CableBox64 | 2:00.25 | 0 | 0 |
| 636 | osmacar | 2:00.26 | 0 | 0 |
| 637 | Chromakaze | 2:00.27 | 0 | 0 |
| 638 | tawnted | 2:00.28 | 0 | 0 |
| 639 | SlenderPaul | 2:00.30 | 0 | 0 |
| 639 | Final | 2:00.30 | 0 | 0 |
| 641 | DROCHEPOLK | 2:00.31 | 0 | 0 |
| 642 | Alaskalúpína | 2:00.37 | 0 | 0 |
| 643 | Stracciatella | 2:00.38 | 0 | 0 |
| 643 | Alpha_73346 | 2:00.38 | 0 | 0 |
| 645 | Unlight369 | 2:00.43 | 0 | 0 |
| 645 | Pixel_ | 2:00.43 | 0 | 0 |
| 647 | Neoblastz | 2:00.44 | 0 | 0 |
| 647 | 大喵喵喵 | 2:00.44 | 0 | 0 |
| 649 | Lutermama | 2:00.47 | 0 | 0 |
| 650 | Jepplez | 2:00.50 | 0 | 0 |
| 650 | MENICE Ω | 2:00.50 | 0 | 0 |
| 650 | sacrafish | 2:00.50 | 0 | 0 |
| 650 | starbitbanhi | 2:00.50 | 0 | 0 |
| 654 | Enzyme Machine | 2:00.52 | 0 | 0 |
| 655 | The Good Gaming Dragon | 2:00.53 | 0 | 0 |
| 655 | cheesymantisfondue | 2:00.53 | 0 | 0 |
| 657 | Dorphan | 2:00.54 | 0 | 0 |
| 658 | Valalala | 2:00.55 | 0 | 0 |
| 659 | Seshiruseth | 2:00.60 | 0 | 0 |
| 660 | LemonIsland | 2:00.63 | 0 | 0 |
| 661 | rz zombie | 2:00.64 | 0 | 0 |
| 662 | ForlornStag | 2:00.66 | 0 | 0 |
| 663 | EnderKill98 | 2:00.67 | 0 | 0 |
| 664 | Bijan | 2:00.71 | 0 | 0 |
| 664 | Jonny | 2:00.71 | 0 | 0 |
| 666 | JankyDingus | 2:00.76 | 0 | 0 |
| 667 | ThatGuyBrit | 2:00.78 | 0 | 0 |
| 668 | Awivlin | 2:00.79 | 0 | 0 |
| 668 | Дядя Ваня | 2:00.79 | 0 | 0 |
| 668 | generally incompetent | 2:00.79 | 0 | 0 |
| 671 | EleventyB | 2:00.80 | 0 | 0 |
| 671 | GabrielLivesHere | 2:00.80 | 0 | 0 |
| 673 | BigThirsty | 2:00.81 | 0 | 0 |
| 674 | Arphey01 | 2:00.82 | 0 | 0 |
| 675 | Barry snorevitch | 2:00.86 | 0 | 0 |
| 676 | Fedge | 2:00.91 | 0 | 0 |
| 677 | TG300 | 2:00.94 | 0 | 0 |
| 678 | Kibōchen | 2:00.96 | 0 | 0 |
| 678 | Methyltheobromine | 2:00.96 | 0 | 0 |
| 678 | KaMozo25 | 2:00.96 | 0 | 0 |
| 681 | Jake.cx | 2:01.01 | 0 | 0 |
| 681 | Keiyo | 2:01.01 | 0 | 0 |
| 681 | Archi | 2:01.01 | 0 | 0 |
| 681 | thunderella | 2:01.01 | 0 | 0 |
| 685 | Orion | 2:01.03 | 0 | 0 |
| 685 | Fregibot | 2:01.03 | 0 | 0 |
| 687 | TheEdIsNotAmused | 2:01.04 | 0 | 0 |
| 687 | Yak-Yo! | 2:01.04 | 0 | 0 |
| 687 | Σ | 2:01.04 | 0 | 0 |
| 690 | Mrinohk | 2:01.05 | 0 | 0 |
| 691 | jes25947 | 2:01.07 | 0 | 0 |
| 692 | Spiffy | 2:01.09 | 0 | 0 |
| 693 | RetaliationGuy YT | 2:01.12 | 0 | 0 |
| 693 | Requiem of Souls | 2:01.12 | 0 | 0 |
| 695 | JLDAGH | 2:01.14 | 0 | 0 |
| 696 | Fenrir | 2:01.17 | 0 | 0 |
| 697 | Lliane | 2:01.18 | 0 | 0 |
| 698 | Iris | 2:01.19 | 0 | 0 |
| 699 | A.K.S. | 2:01.20 | 0 | 0 |
| 700 | rocket3989 | 2:01.21 | 0 | 0 |
| 701 | Kai Nura | 2:01.23 | 0 | 0 |
| 702 | Jercasem | 2:01.24 | 0 | 0 |
| 702 | Autonomus | 2:01.24 | 0 | 0 |
| 704 | Saladus | 2:01.25 | 0 | 0 |
| 704 | Verity | 2:01.25 | 0 | 0 |
| 706 | Charlotte | 2:01.29 | 0 | 0 |
| 707 | RyuKyotei | 2:01.31 | 0 | 0 |
| 708 | julio_alexx | 2:01.34 | 0 | 0 |
| 709 | Norz-Öril'Kern | 2:01.36 | 0 | 0 |
| 710 | Naix | 2:01.37 | 0 | 0 |
| 711 | Valen | 2:01.39 | 0 | 0 |
| 712 | AlveKatt | 2:01.40 | 0 | 0 |
| 713 | [T-PP] PhiniksPlays | 2:01.42 | 0 | 0 |
| 714 | StephanoLight | 2:01.47 | 0 | 0 |
| 715 | El_Gecko | 2:01.48 | 0 | 0 |
| 716 | Mazerswift | 2:01.52 | 0 | 0 |
| 717 | SparraNova | 2:01.53 | 0 | 0 |
| 717 | Sayukki | 2:01.53 | 0 | 0 |
| 719 | samson13 | 2:01.54 | 0 | 0 |
| 719 | polybius99 | 2:01.54 | 0 | 0 |
| 721 | ataraxia.wav | 2:01.56 | 0 | 0 |
| 721 | Дверьё | 2:01.56 | 0 | 0 |
| 721 | [iNk] Primus | 2:01.56 | 0 | 0 |
| 724 | RL | 2:01.57 | 0 | 0 |
| 724 | ♿ | 2:01.57 | 0 | 0 |
| 726 | Chronos | 2:01.59 | 0 | 0 |
| 727 | Moussiah | 2:01.60 | 0 | 0 |
| 728 | HoldenC | 2:01.61 | 0 | 0 |
| 729 | Spearmint | 2:01.65 | 0 | 0 |
| 730 | Reader | 2:01.67 | 0 | 0 |
| 731 | Ae1oURed | 2:01.68 | 0 | 0 |
| 732 | twomanynumbers | 2:01.73 | 0 | 0 |
| 733 | The Ðrifter | 2:01.75 | 0 | 0 |
| 734 | Spookyboogy | 2:01.77 | 0 | 0 |
| 734 | Hopes | 2:01.77 | 0 | 0 |
| 736 | Buster | 2:01.78 | 0 | 0 |
| 736 | Corruptor | 2:01.78 | 0 | 0 |
| 738 | GrizzlyFortiche | 2:01.80 | 0 | 0 |
| 739 | Moon | 2:01.82 | 0 | 0 |
| 740 | Spur | 2:01.84 | 0 | 0 |
| 741 | catbotz | 2:01.85 | 0 | 0 |
| 742 | Predatory_Balloon | 2:01.93 | 0 | 0 |
| 743 | Umbrella Intern | 2:01.95 | 0 | 0 |
| 744 | Chiclets Adams | 2:01.96 | 0 | 0 |
| 745 | Eshael | 2:01.97 | 0 | 0 |
| 746 | blamecoopa | 2:01.99 | 0 | 0 |
| 746 | Traetors | 2:01.99 | 0 | 0 |
| 748 | Fenny | 2:02.02 | 0 | 0 |
| 749 | Soul | 2:02.03 | 0 | 0 |
| 749 | Skransow | 2:02.03 | 0 | 0 |
| 749 | Bat Country | 2:02.03 | 0 | 0 |
| 752 | Idontevenknowyou! | 2:02.06 | 0 | 0 |
| 753 | Bob Ross | 2:02.11 | 0 | 0 |
| 754 | Big Chungus2010 | 2:02.18 | 0 | 0 |
| 755 | Lofthouse | 2:02.21 | 0 | 0 |
| 755 | you dont understand ? | 2:02.21 | 0 | 0 |
| 757 | D0HERRITT | 2:02.28 | 0 | 0 |
| 758 | conduit | 2:02.34 | 0 | 0 |
| 759 | the Bear of the Web | 2:02.37 | 0 | 0 |
| 760 | Buck | 2:02.38 | 0 | 0 |
| 760 | [NBD] PizzaHutDoxen | 2:02.38 | 0 | 0 |
| 762 | Mr. Moebius | 2:02.39 | 0 | 0 |
| 763 | Nick | 2:02.40 | 0 | 0 |
| 764 | Goldbergenstein | 2:02.44 | 0 | 0 |
| 765 | btyrellb125 | 2:02.46 | 0 | 0 |
| 765 | Kaiji is moe | 2:02.46 | 0 | 0 |
| 767 | Nagrom | 2:02.48 | 0 | 0 |
| 768 | Fushiii | 2:02.56 | 0 | 0 |
| 769 | ONLY STRAIGHT IS NORMAL, FREAKS! | 2:02.58 | 0 | 0 |
| 770 | reik | 2:02.60 | 0 | 0 |
| 771 | Sparks | 2:02.63 | 0 | 0 |
| 772 | Tobastin | 2:02.66 | 0 | 0 |
| 773 | Dyltra | 2:02.68 | 0 | 0 |
| 774 | The Male Gamer | 2:02.77 | 0 | 0 |
| 774 | Rudik | 2:02.77 | 0 | 0 |
| 776 | Myliaa | 2:02.79 | 0 | 0 |
| 777 | Xiooo | 2:02.80 | 0 | 0 |
| 778 | troysmith14 | 2:02.82 | 0 | 0 |
| 779 | Astrolight | 2:02.84 | 0 | 0 |
| 780 | Irri | 2:02.86 | 0 | 0 |
| 781 | Toxicologixal | 2:02.87 | 0 | 0 |
| 782 | GaiaGaiyus | 2:02.88 | 0 | 0 |
| 783 | Me an intellectual | 2:02.90 | 0 | 0 |
| 784 | PootisMayo | 2:02.91 | 0 | 0 |
| 785 | ASM Havoc | 2:02.93 | 0 | 0 |
| 786 | Echo | 2:02.94 | 0 | 0 |
| 787 | JulLeBarge | 2:03.00 | 0 | 0 |
| 787 | Lex Solhaime | 2:03.00 | 0 | 0 |
| 787 | gusforester | 2:03.00 | 0 | 0 |
| 790 | epidemie | 2:03.05 | 0 | 0 |
| 791 | JacquetheRipper | 2:03.06 | 0 | 0 |
| 792 | Shyylock | 2:03.07 | 0 | 0 |
| 793 | Tech Priest | 2:03.08 | 0 | 0 |
| 793 | 54mm7 | 2:03.08 | 0 | 0 |
| 795 | Saujii2 | 2:03.18 | 0 | 0 |
| 796 | Kamikaze901 | 2:03.19 | 0 | 0 |
| 797 | delfiler | 2:03.21 | 0 | 0 |
| 798 | torcado | 2:03.22 | 0 | 0 |
| 799 | Kurk Kurk | 2:03.27 | 0 | 0 |
| 800 | A̶͓̓z̷͓̍ũ̴̩r̷͔͐e̴ | 2:03.29 | 0 | 0 |
| 801 | Ironside451 | 2:03.31 | 0 | 0 |
| 801 | SickB | 2:03.31 | 0 | 0 |
| 803 | JC | 2:03.32 | 0 | 0 |
| 804 | LP_NinLory | 2:03.35 | 0 | 0 |
| 805 | [RC] | 2:03.36 | 0 | 0 |
| 805 | Frederik Thundercunt | 2:03.36 | 0 | 0 |
| 807 | prolegy | 2:03.37 | 0 | 0 |
| 807 | Crubo | 2:03.37 | 0 | 0 |
| 809 | Plasmawario | 2:03.40 | 0 | 0 |
| 809 | RUDrew | 2:03.40 | 0 | 0 |
| 809 | TaoSen | 2:03.40 | 0 | 0 |
| 812 | Extreme Pajamas | 2:03.45 | 0 | 0 |
| 813 | TokkiTemple | 2:03.49 | 0 | 0 |
| 814 | Phazyo Knight | 2:03.50 | 0 | 0 |
| 814 | ReadWriteError | 2:03.50 | 0 | 0 |
| 816 | Sky | 2:03.54 | 0 | 0 |
| 817 | Donkey | 2:03.64 | 0 | 0 |
| 818 | Thela Hun Ginjeet | 2:03.65 | 0 | 0 |
| 819 | Eleven27 | 2:03.68 | 0 | 0 |
| 819 | HOWDY | 2:03.68 | 0 | 0 |
| 821 | Raven | 2:03.71 | 0 | 0 |
| 821 | Mr.Demosign | 2:03.71 | 0 | 0 |
| 823 | 猫かわいい | 2:03.75 | 0 | 0 |
| 824 | EdgeMiles | 2:03.77 | 0 | 0 |
| 824 | 遠くの愛好家 | 2:03.77 | 0 | 0 |
| 826 | Vorpal Soul | 2:03.78 | 0 | 0 |
| 827 | KrysAlek | 2:03.80 | 0 | 0 |
| 828 | Racheecha | 2:03.81 | 0 | 0 |
| 828 | Сосёна | 2:03.81 | 0 | 0 |
| 830 | FreakingAwesomeWooper | 2:03.83 | 0 | 0 |
| 831 | Leviticus Blue | 2:03.85 | 0 | 0 |
| 832 | Ribnon | 2:03.87 | 0 | 0 |
| 832 | elijah_huh | 2:03.87 | 0 | 0 |
| 834 | Jim (Special Needs) | 2:03.89 | 0 | 0 |
| 835 | Booster Rooster | 2:03.95 | 0 | 0 |
| 836 | Zane Wuffy | 2:03.96 | 0 | 0 |
| 837 | BumbleFunkMcGee | 2:03.99 | 0 | 0 |
| 837 | Stellarynn | 2:03.99 | 0 | 0 |
| 839 | Inlustris | 2:04.00 | 0 | 0 |
| 840 | Yldri | 2:04.02 | 0 | 0 |
| 841 | florian.s | 2:04.03 | 0 | 0 |
| 842 | FRESH | 2:04.05 | 0 | 0 |
| 843 | MarsDevastater | 2:04.06 | 0 | 0 |
| 844 | danny1234331 | 2:04.07 | 0 | 0 |
| 845 | Big Bootiecoot | 2:04.08 | 0 | 0 |
| 846 | Totally Not Hax | 2:04.14 | 0 | 0 |
| 847 | Naoroji | 2:04.15 | 0 | 0 |
| 848 | Domino | 2:04.16 | 0 | 0 |
| 849 | HotGamer1995 | 2:04.20 | 0 | 0 |
| 850 | Zoey Blackwood | 2:04.25 | 0 | 0 |
| 851 | jan Peli | 2:04.26 | 0 | 0 |
| 851 | Guterson | 2:04.26 | 0 | 0 |
| 851 | TheFluffyDragon/JBSTheGamer | 2:04.26 | 0 | 0 |
| 854 | --TuttiFrutti-- | 2:04.36 | 0 | 0 |
| 855 | BombLance | 2:04.39 | 0 | 0 |
| 856 | crozak | 2:04.41 | 0 | 0 |
| 857 | Neo Void Star | 2:04.43 | 0 | 0 |
| 857 | TantasStarke | 2:04.43 | 0 | 0 |
| 859 | guilherme giuseppe | 2:04.44 | 0 | 0 |
| 860 | Dreamy Zucchini | 2:04.48 | 0 | 0 |
| 861 | Pygmyowl | 2:04.52 | 0 | 0 |
| 862 | Seinah | 2:04.53 | 0 | 0 |
| 862 | Rycka | 2:04.53 | 0 | 0 |
| 864 | JaimmyShine | 2:04.54 | 0 | 0 |
| 865 | Kuha | 2:04.55 | 0 | 0 |
| 865 | TTV_Sixprey | 2:04.55 | 0 | 0 |
| 867 | keksilu | 2:04.60 | 0 | 0 |
| 867 | ShotgunReptile | 2:04.60 | 0 | 0 |
| 869 | Sieron Satori | 2:04.64 | 0 | 0 |
| 870 | Vivid Empress | 2:04.65 | 0 | 0 |
| 870 | Darklight | 2:04.65 | 0 | 0 |
| 872 | Slemn | 2:04.66 | 0 | 0 |
| 872 | ErzoopaRTR | 2:04.66 | 0 | 0 |
| 874 | amdiranifani | 2:04.67 | 0 | 0 |
| 875 | LordBohne2 | 2:04.69 | 0 | 0 |
| 876 | archdeco | 2:04.75 | 0 | 0 |
| 876 | allquiet | 2:04.75 | 0 | 0 |
| 876 | DF4 | 2:04.75 | 0 | 0 |
| 879 | Cerberus14 | 2:04.78 | 0 | 0 |
| 880 | Shivoo | 2:04.79 | 0 | 0 |
| 881 | Bohemius | 2:04.80 | 0 | 0 |
| 882 | EnVyUs- yng jit | 2:04.83 | 0 | 0 |
| 883 | Deerman | 2:04.87 | 0 | 0 |
| 884 | Muggestutz | 2:04.88 | 0 | 0 |
| 885 | Alex97r | 2:04.89 | 0 | 0 |
| 885 | Robert Pingle | 2:04.89 | 0 | 0 |
| 887 | Jay2a | 2:04.93 | 0 | 0 |
| 888 | Gureumi | 2:04.94 | 0 | 0 |
| 889 | Gage | 2:04.95 | 0 | 0 |
| 890 | The Undead Pyro | 2:04.96 | 0 | 0 |
| 891 | FabioTheTurtle | 2:04.97 | 0 | 0 |
| 891 | MachineThreat | 2:04.97 | 0 | 0 |
| 891 | Johnson.Never | 2:04.97 | 0 | 0 |
| 894 | FaynVonFloof | 2:05.04 | 0 | 0 |
| 895 | RayanSub | 2:05.07 | 0 | 0 |
| 896 | Shamus | 2:05.15 | 0 | 0 |
| 896 | Noctre | 2:05.15 | 0 | 0 |
| 898 | Aeroslut | 2:05.17 | 0 | 0 |
| 899 | Efeyabel | 2:05.19 | 0 | 0 |
| 899 | Gecky | 2:05.19 | 0 | 0 |
| 899 | Foxy 狐の夏 | 2:05.19 | 0 | 0 |
| 899 | Hijacker02 | 2:05.19 | 0 | 0 |
| 903 | MPR03a | 2:05.20 | 0 | 0 |
| 904 | krakentoa | 2:05.21 | 0 | 0 |
| 904 | GekoKid | 2:05.21 | 0 | 0 |
| 904 | Viking_king | 2:05.21 | 0 | 0 |
| 904 | phfphefph | 2:05.21 | 0 | 0 |
| 908 | Rafoie | 2:05.27 | 0 | 0 |
| 909 | Ara | 2:05.28 | 0 | 0 |
| 910 | RisingHERO19 | 2:05.29 | 0 | 0 |
| 911 | Michelangelo | 2:05.31 | 0 | 0 |
| 912 | Spectrate | 2:05.33 | 0 | 0 |
| 912 | sgo4020 | 2:05.33 | 0 | 0 |
| 914 | singingsteel | 2:05.38 | 0 | 0 |
| 915 | ℛ𝓊𝓃𝑒 | 2:05.41 | 0 | 0 |
| 916 | Michael in the Middle | 2:05.43 | 0 | 0 |
| 917 | Amored Dragon | 2:05.44 | 0 | 0 |
| 918 | Slotherium | 2:05.45 | 0 | 0 |
| 919 | A Very Angy Opossum | 2:05.47 | 0 | 0 |
| 919 | VariousBlazertazer | 2:05.47 | 0 | 0 |
| 921 | Starsyde77 | 2:05.48 | 0 | 0 |
| 922 | BlueStalfos | 2:05.52 | 0 | 0 |
| 923 | Shooter | 2:05.58 | 0 | 0 |
| 924 | Eikunai | 2:05.60 | 0 | 0 |
| 925 | xClarkx22 | 2:05.65 | 0 | 0 |
| 926 | PlΣXi | 2:05.66 | 0 | 0 |
| 927 | GhostlyCryptid | 2:05.69 | 0 | 0 |
| 928 | Fleabag | 2:05.70 | 0 | 0 |
| 929 | SmackinCheese | 2:05.72 | 0 | 0 |
| 930 | TheBruno | 2:05.73 | 0 | 0 |
| 931 | Agent Starlight | 2:05.75 | 0 | 0 |
| 932 | 204863 | 2:05.77 | 0 | 0 |
| 933 | Disatroja | 2:05.79 | 0 | 0 |
| 933 | nightclubpositive | 2:05.79 | 0 | 0 |
| 935 | Unit M4-S0N | 2:05.82 | 0 | 0 |
| 936 | PalmTopDuck | 2:05.85 | 0 | 0 |
| 937 | moth | 2:05.87 | 0 | 0 |
| 937 | Woody | 2:05.87 | 0 | 0 |
| 939 | Sxolian | 2:05.88 | 0 | 0 |
| 940 | Locura | 2:05.89 | 0 | 0 |
| 941 | hAwG | 2:05.95 | 0 | 0 |
| 942 | Omega_Raptors | 2:06.00 | 0 | 0 |
| 943 | Retroactive Continuity | 2:06.05 | 0 | 0 |
| 944 | Mammoth Gorgon | 2:06.06 | 0 | 0 |
| 944 | SaxyBoi | 2:06.06 | 0 | 0 |
| 946 | Leudic | 2:06.07 | 0 | 0 |
| 947 | Booler | 2:06.11 | 0 | 0 |
| 947 | Boomslang | 2:06.11 | 0 | 0 |
| 947 | MiniD | 2:06.11 | 0 | 0 |
| 950 | Sleepy | 2:06.12 | 0 | 0 |
| 951 | Andy95 | 2:06.13 | 0 | 0 |
| 952 | thom6777 | 2:06.16 | 0 | 0 |
| 952 | kivito | 2:06.16 | 0 | 0 |
| 954 | OopsieBeans | 2:06.18 | 0 | 0 |
| 954 | Bullet074 | 2:06.18 | 0 | 0 |
| 956 | Mikaho | 2:06.19 | 0 | 0 |
| 957 | Koffiekopje | 2:06.21 | 0 | 0 |
| 958 | Kirby's5thDUI | 2:06.22 | 0 | 0 |
| 959 | Krull | 2:06.24 | 0 | 0 |
| 960 | Typhon | 2:06.25 | 0 | 0 |
| 961 | BRUG | 2:06.26 | 0 | 0 |
| 962 | Toats | 2:06.28 | 0 | 0 |
| 963 | Pollo Campero | 2:06.35 | 0 | 0 |
| 963 | Lloxran | 2:06.35 | 0 | 0 |
| 963 | SnowAfterNap | 2:06.35 | 0 | 0 |
| 966 | Thechin | 2:06.39 | 0 | 0 |
| 967 | Lampshaede | 2:06.43 | 0 | 0 |
| 968 | daswiftguy | 2:06.44 | 0 | 0 |
| 969 | Kleimann | 2:06.47 | 0 | 0 |
| 969 | Dany | 2:06.47 | 0 | 0 |
| 971 | Lizard Wizard | 2:06.50 | 0 | 0 |
| 972 | NagaKnight | 2:06.51 | 0 | 0 |
| 973 | Mr Chip | 2:06.54 | 0 | 0 |
| 974 | Jim_Clonk | 2:06.62 | 0 | 0 |
| 975 | Bumblebee Gamer | 2:06.63 | 0 | 0 |
| 976 | Sev | 2:06.66 | 0 | 0 |
| 976 | Jarne | 2:06.66 | 0 | 0 |
| 978 | K-NiGHT | 2:06.67 | 0 | 0 |
| 979 | Keflon | 2:06.71 | 0 | 0 |
| 980 | femptocrisis | 2:06.72 | 0 | 0 |
| 981 | Depth | 2:06.73 | 0 | 0 |
| 982 | Vencer_FRC | 2:06.75 | 0 | 0 |
| 983 | Agroman12 | 2:06.76 | 0 | 0 |
| 983 | duplexkiller | 2:06.76 | 0 | 0 |
| 985 | Guardian | 2:06.79 | 0 | 0 |
| 985 | Draexx | 2:06.79 | 0 | 0 |
| 987 | doomsday device | 2:06.86 | 0 | 0 |
| 988 | PhenomD | 2:06.87 | 0 | 0 |
| 988 | Pedro | 2:06.87 | 0 | 0 |
| 990 | guillaume vaullerin | 2:06.88 | 0 | 0 |
| 991 | echance01 | 2:06.90 | 0 | 0 |
| 992 | tipek360 | 2:06.92 | 0 | 0 |
| 993 | Roggee | 2:06.96 | 0 | 0 |
| 994 | Tech0verlord | 2:07.04 | 0 | 0 |
| 995 | Mossy Shush | 2:07.17 | 0 | 0 |
| 996 | Frozen Dino | 2:07.18 | 0 | 0 |
| 997 | Wayward Dragon | 2:07.19 | 0 | 0 |
| 998 | SP** | 2:07.20 | 0 | 0 |
| 998 | ImmortalSausages | 2:07.20 | 0 | 0 |
| 998 | Lupeling | 2:07.20 | 0 | 0 |
| 1,001 | DriveOffTheCliff | 2:07.23 | 0 | 0 |
| 1,002 | Natr | 2:07.24 | 0 | 0 |
| 1,003 | BulletCatcher | 2:07.28 | 0 | 0 |
| 1,004 | Running With Razors | 2:07.32 | 0 | 0 |
| 1,004 | HatCat, Oil Baron | 2:07.32 | 0 | 0 |
| 1,004 | Krazy8s | 2:07.32 | 0 | 0 |
| 1,007 | le0n | 2:07.34 | 0 | 0 |
| 1,008 | Sunzara | 2:07.35 | 0 | 0 |
| 1,008 | russ117 | 2:07.35 | 0 | 0 |
| 1,010 | OneCent_HD | 2:07.41 | 0 | 0 |
| 1,011 | Mash | 2:07.43 | 0 | 0 |
| 1,011 | CITIZEN_2O48 | 2:07.43 | 0 | 0 |
| 1,013 | Lena The Snom Mom | 2:07.45 | 0 | 0 |
| 1,014 | bananaflame | 2:07.46 | 0 | 0 |
| 1,015 | Mx | 2:07.47 | 0 | 0 |
| 1,016 | BedrokiV | 2:07.48 | 0 | 0 |
| 1,017 | Avvy Chav | 2:07.51 | 0 | 0 |
| 1,018 | That One Panda | 2:07.52 | 0 | 0 |
| 1,019 | Yah Mo | 2:07.53 | 0 | 0 |
| 1,020 | BK Trombley | 2:07.55 | 0 | 0 |
| 1,021 | .Silver | 2:07.57 | 0 | 0 |
| 1,022 | ΣlectrσWingPixy | 2:07.59 | 0 | 0 |
| 1,023 | Specter | 2:07.60 | 0 | 0 |
| 1,023 | Spiralasis | 2:07.60 | 0 | 0 |
| 1,025 | TheBoredguyyy | 2:07.63 | 0 | 0 |
| 1,025 | ShotgunSalad | 2:07.63 | 0 | 0 |
| 1,027 | unnamed player | 2:07.64 | 0 | 0 |
| 1,028 | Pteroborne | 2:07.66 | 0 | 0 |
| 1,028 | slimcake07 | 2:07.66 | 0 | 0 |
| 1,030 | SynfulShapeshifter | 2:07.72 | 0 | 0 |
| 1,030 | LissomChunk | 2:07.72 | 0 | 0 |
| 1,032 | Chamango | 2:07.74 | 0 | 0 |
| 1,033 | calne | 2:07.75 | 0 | 0 |
| 1,034 | SirWanksalot | 2:07.78 | 0 | 0 |
| 1,035 | dannyburke03 | 2:07.82 | 0 | 0 |
| 1,036 | Aastran | 2:07.84 | 0 | 0 |
| 1,037 | Aespher | 2:07.86 | 0 | 0 |
| 1,038 | Rush | 2:07.89 | 0 | 0 |
| 1,039 | tao | 2:07.90 | 0 | 0 |
| 1,040 | DaekDragon | 2:07.91 | 0 | 0 |
| 1,041 | Palomingo | 2:07.94 | 0 | 0 |
| 1,042 | Hayden | 2:07.97 | 0 | 0 |
| 1,043 | tvgold | 2:07.99 | 0 | 0 |
| 1,044 | Stracker | 2:08.01 | 0 | 0 |
| 1,045 | Captain Kobold | 2:08.05 | 0 | 0 |
| 1,046 | PanFro | 2:08.08 | 0 | 0 |
| 1,047 | Brando Multin | 2:08.11 | 0 | 0 |
| 1,047 | Lol Bengals | 2:08.11 | 0 | 0 |
| 1,049 | DOOM | 2:08.13 | 0 | 0 |
| 1,049 | h3artl3ss362 | 2:08.13 | 0 | 0 |
| 1,049 | Faucet Drinker Pro | 2:08.13 | 0 | 0 |
| 1,049 | 〔Es〕 | 2:08.13 | 0 | 0 |
| 1,053 | sneulv2 | 2:08.14 | 0 | 0 |
| 1,053 | ghosta_rica | 2:08.14 | 0 | 0 |
| 1,055 | S.D Gabo Tachyon | 2:08.19 | 0 | 0 |
| 1,056 | dumpBikes | 2:08.21 | 0 | 0 |
| 1,057 | Greenfire DX | 2:08.23 | 0 | 0 |
| 1,058 | Kypar | 2:08.25 | 0 | 0 |
| 1,059 | Fuffmydog | 2:08.29 | 0 | 0 |
| 1,060 | SIGSTACKFAULT | 2:08.32 | 0 | 0 |
| 1,061 | Fergunnar | 2:08.36 | 0 | 0 |
| 1,062 | Rystren | 2:08.40 | 0 | 0 |
| 1,063 | DrTexx | 2:08.42 | 0 | 0 |
| 1,064 | CptKraps | 2:08.53 | 0 | 0 |
| 1,065 | throbbing_fish | 2:08.56 | 0 | 0 |
| 1,066 | Horcrux | 2:08.57 | 0 | 0 |
| 1,066 | pox | 2:08.57 | 0 | 0 |
| 1,068 | FOG BLAST THE VENT CORE | 2:08.61 | 0 | 0 |
| 1,069 | Ratboy Jones | 2:08.66 | 0 | 0 |
| 1,069 | Shade | 2:08.66 | 0 | 0 |
| 1,071 | Mr SEVEN | 2:08.67 | 0 | 0 |
| 1,072 | Nielzos | 2:08.70 | 0 | 0 |
| 1,073 | [Muezli] Shufly16 | 2:08.76 | 0 | 0 |
| 1,074 | OMANEYE | 2:08.78 | 0 | 0 |
| 1,075 | blur | 2:08.79 | 0 | 0 |
| 1,076 | Nat$u | 2:08.80 | 0 | 0 |
| 1,077 | Legoyoda | 2:08.87 | 0 | 0 |
| 1,078 | Skyler Fox | 2:08.92 | 0 | 0 |
| 1,078 | Carebeef | 2:08.92 | 0 | 0 |
| 1,080 | The Law | 2:08.96 | 0 | 0 |
| 1,081 | Skye | 2:08.97 | 0 | 0 |
| 1,082 | Knight of Trousers | 2:08.98 | 0 | 0 |
| 1,082 | NightxBandit | 2:08.98 | 0 | 0 |
| 1,084 | Roboraser | 2:09.05 | 0 | 0 |
| 1,085 | totheSouth | 2:09.11 | 0 | 0 |
| 1,085 | Maxpm | 2:09.11 | 0 | 0 |
| 1,087 | Ostap Bender | 2:09.12 | 0 | 0 |
| 1,088 | Femcel (Sami) | 2:09.13 | 0 | 0 |
| 1,089 | cocob4 | 2:09.19 | 0 | 0 |
| 1,090 | Syntax | 2:09.23 | 0 | 0 |
| 1,091 | RenokK | 2:09.24 | 0 | 0 |
| 1,092 | Satoshi | 2:09.30 | 0 | 0 |
| 1,093 | [BIT] Iroden | 2:09.35 | 0 | 0 |
| 1,094 | Ptakx [ES-FR] | 2:09.41 | 0 | 0 |
| 1,095 | dan7999 | 2:09.44 | 0 | 0 |
| 1,096 | Oblivious | 2:09.50 | 0 | 0 |
| 1,096 | MikuTovarish | 2:09.50 | 0 | 0 |
| 1,098 | SPEEDYSPEEDBOI | 2:09.52 | 0 | 0 |
| 1,099 | Psygro | 2:09.54 | 0 | 0 |
| 1,099 | Rombommind | 2:09.54 | 0 | 0 |
| 1,101 | TwoScoops | 2:09.59 | 0 | 0 |
| 1,102 | Mage Vivian the Matriarch | 2:09.62 | 0 | 0 |
| 1,103 | Swizy | 2:09.64 | 0 | 0 |
| 1,104 | lfighter | 2:09.68 | 0 | 0 |
| 1,105 | Hars | 2:09.69 | 0 | 0 |
| 1,106 | Bubwubster | 2:09.71 | 0 | 0 |
| 1,107 | The Blåhaj™ from IKEA® | 2:09.72 | 0 | 0 |
| 1,107 | Zeimeen | 2:09.72 | 0 | 0 |
| 1,109 | Nixill | 2:09.76 | 0 | 0 |
| 1,110 | Magister Ludi | 2:09.77 | 0 | 0 |
| 1,111 | Vampire | 2:09.83 | 0 | 0 |
| 1,112 | Loune Fire | 2:09.91 | 0 | 0 |
| 1,113 | Grabuge | 2:09.93 | 0 | 0 |
| 1,114 | barking | 2:09.95 | 0 | 0 |
| 1,115 | Plentiful | 2:09.98 | 0 | 0 |
| 1,116 | Uholyn | 2:10.00 | 0 | 0 |
| 1,117 | Talesbros | 2:10.03 | 0 | 0 |
| 1,117 | Wipeout! | 2:10.03 | 0 | 0 |
| 1,119 | Teclon | 2:10.06 | 0 | 0 |
| 1,120 | GetEmOtterHere | 2:10.09 | 0 | 0 |
| 1,121 | Aimbrot, die Seegurke | 2:10.10 | 0 | 0 |
| 1,121 | bmrc97 | 2:10.10 | 0 | 0 |
| 1,123 | Velimor | 2:10.18 | 0 | 0 |
| 1,124 | arkhayem | 2:10.19 | 0 | 0 |
| 1,125 | Layla | 2:10.23 | 0 | 0 |
| 1,126 | Cheet@hRus | 2:10.25 | 0 | 0 |
| 1,126 | Meconis | 2:10.25 | 0 | 0 |
| 1,128 | tofi.- | 2:10.27 | 0 | 0 |
| 1,129 | Snugable Spid | 2:10.29 | 0 | 0 |
| 1,130 | #Mott | 2:10.36 | 0 | 0 |
| 1,131 | timawesomeness | 2:10.42 | 0 | 0 |
| 1,132 | Beastrolami | 2:10.45 | 0 | 0 |
| 1,133 | Hovex the Spider | 2:10.46 | 0 | 0 |
| 1,134 | Kuby | 2:10.48 | 0 | 0 |
| 1,135 | Ellena | 2:10.49 | 0 | 0 |
| 1,136 | eriyo | 2:10.57 | 0 | 0 |
| 1,137 | Simon | 2:10.59 | 0 | 0 |
| 1,138 | Onneyon | 2:10.61 | 0 | 0 |
| 1,139 | Bratalix | 2:10.62 | 0 | 0 |
| 1,140 | Gomorrha | 2:10.63 | 0 | 0 |
| 1,140 | siafa | 2:10.63 | 0 | 0 |
| 1,142 | Slip Phantom | 2:10.67 | 0 | 0 |
| 1,143 | HeliosMagi | 2:10.70 | 0 | 0 |
| 1,144 | Apok | 2:10.71 | 0 | 0 |
| 1,145 | Kubus_X_VR | 2:10.72 | 0 | 0 |
| 1,146 | Captain Frosty | 2:10.73 | 0 | 0 |
| 1,147 | Sora | 2:10.77 | 0 | 0 |
| 1,148 | Nexhin | 2:10.80 | 0 | 0 |
| 1,149 | ChinoisCosmique | 2:10.92 | 0 | 0 |
| 1,150 | Yipp | 2:10.95 | 0 | 0 |
| 1,151 | DJ McBirde | 2:10.96 | 0 | 0 |
| 1,152 | Tom Bergeron | 2:10.98 | 0 | 0 |
| 1,153 | Squishy | 2:10.99 | 0 | 0 |
| 1,154 | Macblur2 | 2:11.00 | 0 | 0 |
| 1,155 | Metaleiroll | 2:11.04 | 0 | 0 |
| 1,156 | LOLO FAK | 2:11.08 | 0 | 0 |
| 1,156 | Turnabout Grag | 2:11.08 | 0 | 0 |
| 1,158 | Yuuki Asuna | 2:11.20 | 0 | 0 |
| 1,159 | Delta | 2:11.23 | 0 | 0 |
| 1,160 | FriendlyNecron | 2:11.25 | 0 | 0 |
| 1,161 | Wise | 2:11.26 | 0 | 0 |
| 1,161 | leonski goldberg | 2:11.26 | 0 | 0 |
| 1,163 | Alexkurts | 2:11.28 | 0 | 0 |
| 1,164 | CleverlyStoopid | 2:11.30 | 0 | 0 |
| 1,164 | Pristine | 2:11.30 | 0 | 0 |
| 1,166 | theninjacat799 | 2:11.34 | 0 | 0 |
| 1,167 | Halcyon | 2:11.40 | 0 | 0 |
| 1,168 | kurosu | 2:11.43 | 0 | 0 |
| 1,169 | 16aroth6 | 2:11.44 | 0 | 0 |
| 1,170 | ZonkedDistress9 | 2:11.47 | 0 | 0 |
| 1,171 | F.earS.A.w | 2:11.49 | 0 | 0 |
| 1,172 | Wardit306 | 2:11.51 | 0 | 0 |
| 1,173 | Felynka | 2:11.52 | 0 | 0 |
| 1,174 | AVeryTastyCactus | 2:11.54 | 0 | 0 |
| 1,175 | [HuH]DukeNico | 2:11.55 | 0 | 0 |
| 1,175 | Ayre | 2:11.55 | 0 | 0 |
| 1,177 | Jass5991 | 2:11.61 | 0 | 0 |
| 1,178 | DekenFrost | 2:11.62 | 0 | 0 |
| 1,178 | SillyKitty | 2:11.62 | 0 | 0 |
| 1,178 | johnchen40904 | 2:11.62 | 0 | 0 |
| 1,181 | San_Tolorio | 2:11.63 | 0 | 0 |
| 1,182 | Moodeng | 2:11.64 | 0 | 0 |
| 1,183 | Blacky Stranger | 2:11.65 | 0 | 0 |
| 1,183 | Kinky Sniper95 | 2:11.65 | 0 | 0 |
| 1,185 | optihomas primus | 2:11.69 | 0 | 0 |
| 1,186 | 문경왕개미 | 2:11.70 | 0 | 0 |
| 1,187 | Rázzer | 2:11.71 | 0 | 0 |
| 1,188 | Cookie Dealer | 2:11.74 | 0 | 0 |
| 1,189 | Lore maker | 2:11.77 | 0 | 0 |
| 1,190 | Splat | 2:11.80 | 0 | 0 |
| 1,191 | unsthuthn | 2:11.87 | 0 | 0 |
| 1,192 | FlipperDaddy | 2:11.89 | 0 | 0 |
| 1,193 | Beets by Farmer Dre | 2:11.96 | 0 | 0 |
| 1,194 | Hayaweh | 2:12.01 | 0 | 0 |
| 1,195 | jvdxn | 2:12.03 | 0 | 0 |
| 1,196 | LunaPwny | 2:12.04 | 0 | 0 |
| 1,197 | HDTV | 2:12.08 | 0 | 0 |
| 1,198 | Vimto | 2:12.09 | 0 | 0 |
| 1,199 | ItzJiggzy | 2:12.17 | 0 | 0 |
| 1,200 | Rhamley | 2:12.19 | 0 | 0 |
| 1,201 | Sorez | 2:12.21 | 0 | 0 |
| 1,201 | LocalPizzaBox | 2:12.21 | 0 | 0 |
| 1,203 | Giant From The East | 2:12.23 | 0 | 0 |
| 1,204 | Jos | 2:12.24 | 0 | 0 |
| 1,205 | WolfGamesHD | 2:12.26 | 0 | 0 |
| 1,206 | Eddie980® | 2:12.27 | 0 | 0 |
| 1,207 | ultravirus | 2:12.30 | 0 | 0 |
| 1,207 | gslayer14 | 2:12.30 | 0 | 0 |
| 1,209 | kevzor | 2:12.42 | 0 | 0 |
| 1,210 | oshunter124 | 2:12.45 | 0 | 0 |
| 1,211 | 口沃虎牙 米托拉塔 | 2:12.53 | 0 | 0 |
| 1,212 | Loving Wolf | 2:12.56 | 0 | 0 |
| 1,213 | Sandi_Witch | 2:12.61 | 0 | 0 |
| 1,214 | ZEPHAARP | 2:12.62 | 0 | 0 |
| 1,215 | Fruchtschnittchen | 2:12.63 | 0 | 0 |
| 1,216 | Keskase | 2:12.66 | 0 | 0 |
| 1,216 | Rodolfo90k (BR) | 2:12.66 | 0 | 0 |
| 1,218 | Cheeseburger Charles | 2:12.70 | 0 | 0 |
| 1,219 | Beastman | 2:12.74 | 0 | 0 |
| 1,220 | Canomi | 2:12.78 | 0 | 0 |
| 1,221 | HoneyBea48 | 2:12.81 | 0 | 0 |
| 1,222 | DeathByDusk | 2:12.85 | 0 | 0 |
| 1,223 | Iwak | 2:12.87 | 0 | 0 |
| 1,224 | lucas88 | 2:12.92 | 0 | 0 |
| 1,225 | gheppio | 2:12.94 | 0 | 0 |
| 1,225 | Mordekkai | 2:12.94 | 0 | 0 |
| 1,227 | RenTide4 | 2:12.97 | 0 | 0 |
| 1,228 | Шоколадка:) | 2:12.99 | 0 | 0 |
| 1,229 | Basan | 2:13.03 | 0 | 0 |
| 1,230 | Skizz | 2:13.05 | 0 | 0 |
| 1,230 | Æurora | 2:13.05 | 0 | 0 |
| 1,230 | Animax | 2:13.05 | 0 | 0 |
| 1,230 | Satin | 2:13.05 | 0 | 0 |
| 1,234 | BhadBhunni | 2:13.10 | 0 | 0 |
| 1,235 | RaeChillz | 2:13.11 | 0 | 0 |
| 1,236 | Awesomedan | 2:13.12 | 0 | 0 |
| 1,237 | NostalgicRage | 2:13.16 | 0 | 0 |
| 1,238 | Calcarious | 2:13.17 | 0 | 0 |
| 1,239 | [NR] Miyu012 | 2:13.18 | 0 | 0 |
| 1,240 | Yuki Arika Muze | 2:13.23 | 0 | 0 |
| 1,241 | CodeFlow | 2:13.24 | 0 | 0 |
| 1,242 | JeffTheBruh | 2:13.27 | 0 | 0 |
| 1,243 | Rurtanar | 2:13.29 | 0 | 0 |
| 1,244 | RainmakeR | 2:13.37 | 0 | 0 |
| 1,245 | SirLiveAlot | 2:13.38 | 0 | 0 |
| 1,246 | gnss- | 2:13.39 | 0 | 0 |
| 1,247 | Bandit | 2:13.40 | 0 | 0 |
| 1,248 | félix | 2:13.41 | 0 | 0 |
| 1,249 | MidrangeMillennial | 2:13.47 | 0 | 0 |
| 1,250 | [ITA] YouF | 2:13.49 | 0 | 0 |
| 1,251 | 321longshot | 2:13.52 | 0 | 0 |
| 1,252 | geuse juice jazz | 2:13.53 | 0 | 0 |
| 1,253 | EMPTY | 2:13.54 | 0 | 0 |
| 1,254 | Kenbomb | 2:13.55 | 0 | 0 |
| 1,254 | Nyra | 2:13.55 | 0 | 0 |
| 1,256 | CygnusAutomata | 2:13.56 | 0 | 0 |
| 1,257 | Hightree | 2:13.59 | 0 | 0 |
| 1,258 | Tomacawk | 2:13.61 | 0 | 0 |
| 1,259 | f4y3 | 2:13.68 | 0 | 0 |
| 1,260 | Natalia1 | 2:13.70 | 0 | 0 |
| 1,261 | Bjorn0411 | 2:13.72 | 0 | 0 |
| 1,261 | bloodorangesunrise | 2:13.72 | 0 | 0 |
| 1,263 | Grungus | 2:13.75 | 0 | 0 |
| 1,264 | dan96kid | 2:13.80 | 0 | 0 |
| 1,265 | The Biggest [REDACTED] Ogre | 2:13.85 | 0 | 0 |
| 1,266 | Ulfhednar | 2:13.86 | 0 | 0 |
| 1,267 | Sansla | 2:13.87 | 0 | 0 |
| 1,268 | Marchin | 2:13.91 | 0 | 0 |
| 1,269 | 回向院 | 2:13.97 | 0 | 0 |
| 1,270 | GabigoG | 2:14.03 | 0 | 0 |
| 1,271 | itakumre | 2:14.06 | 0 | 0 |
| 1,271 | Pointed Mammal29 | 2:14.06 | 0 | 0 |
| 1,271 | Kasane Teto | 2:14.06 | 0 | 0 |
| 1,274 | orbie | 2:14.15 | 0 | 0 |
| 1,275 | korada | 2:14.17 | 0 | 0 |
| 1,276 | Miniturk | 2:14.18 | 0 | 0 |
| 1,276 | ✪Сталин✪ | 2:14.18 | 0 | 0 |
| 1,276 | fote | 2:14.18 | 0 | 0 |
| 1,279 | TomatoSlayer6 | 2:14.20 | 0 | 0 |
| 1,280 | Voltaic | 2:14.24 | 0 | 0 |
| 1,281 | Teacup | 2:14.32 | 0 | 0 |
| 1,281 | Damionf | 2:14.32 | 0 | 0 |
| 1,283 | Zed™ | 2:14.34 | 0 | 0 |
| 1,284 | Zyon | 2:14.37 | 0 | 0 |
| 1,285 | Honnse | 2:14.43 | 0 | 0 |
| 1,286 | Lady Yuna Yosha | 2:14.45 | 0 | 0 |
| 1,287 | Confetti | 2:14.47 | 0 | 0 |
| 1,288 | Blade | 2:14.50 | 0 | 0 |
| 1,289 | Duke Swampy | 2:14.59 | 0 | 0 |
| 1,290 | FreeFull | 2:14.63 | 0 | 0 |
| 1,291 | Adrián | 2:14.72 | 0 | 0 |
| 1,292 | Grae Ryo | 2:14.73 | 0 | 0 |
| 1,293 | Mister JT | 2:14.76 | 0 | 0 |
| 1,294 | Dorey348 | 2:14.79 | 0 | 0 |
| 1,295 | ✱ Ale | 2:14.82 | 0 | 0 |
| 1,296 | delladriv | 2:14.84 | 0 | 0 |
| 1,297 | AMexii | 2:14.90 | 0 | 0 |
| 1,298 | roatigern | 2:14.92 | 0 | 0 |
| 1,299 | resens | 2:14.96 | 0 | 0 |
| 1,300 | UncleJibJab | 2:15.03 | 0 | 0 |
| 1,300 | Nonoka-Ayame | 2:15.03 | 0 | 0 |
| 1,302 | E0N | 2:15.15 | 0 | 0 |
| 1,303 | Potted Mushroom | 2:15.17 | 0 | 0 |
| 1,304 | Jinks | 2:15.20 | 0 | 0 |
| 1,305 | ENDER [BOT] | 2:15.27 | 0 | 0 |
| 1,306 | CrispyChips | 2:15.33 | 0 | 0 |
| 1,307 | FrenchMeme | 2:15.39 | 0 | 0 |
| 1,308 | Bark Obama | 2:15.40 | 0 | 0 |
| 1,309 | NarilCrow | 2:15.41 | 0 | 0 |
| 1,309 | Terr4 | 2:15.41 | 0 | 0 |
| 1,311 | Shanikan | 2:15.42 | 0 | 0 |
| 1,312 | Graviterium | 2:15.51 | 0 | 0 |
| 1,313 | javi | 2:15.55 | 0 | 0 |
| 1,314 | Beta | 2:15.61 | 0 | 0 |
| 1,315 | North | 2:15.63 | 0 | 0 |
| 1,315 | Mr. Doon | 2:15.63 | 0 | 0 |
| 1,317 | Albertmus | 2:15.67 | 0 | 0 |
| 1,318 | nope | 2:15.68 | 0 | 0 |
| 1,318 | diegolax | 2:15.68 | 0 | 0 |
| 1,320 | altimos64 | 2:15.71 | 0 | 0 |
| 1,320 | a most nefarious zoroark | 2:15.71 | 0 | 0 |
| 1,322 | Hiddelgreyk | 2:15.72 | 0 | 0 |
| 1,323 | Monarch | 2:15.77 | 0 | 0 |
| 1,324 | Henni | 2:15.81 | 0 | 0 |
| 1,325 | Madam SalBranella | 2:15.86 | 0 | 0 |
| 1,325 | Melty | 2:15.86 | 0 | 0 |
| 1,327 | parzivalls | 2:15.93 | 0 | 0 |
| 1,328 | KodaPop | 2:15.96 | 0 | 0 |
| 1,329 | CHRMOLOG | 2:16.12 | 0 | 0 |
| 1,330 | -Synthetica- | 2:16.17 | 0 | 0 |
| 1,331 | Reus | 2:16.27 | 0 | 0 |
| 1,331 | JasterPax | 2:16.27 | 0 | 0 |
| 1,333 | ouchyzapgun | 2:16.30 | 0 | 0 |
| 1,334 | itzAndre | 2:16.32 | 0 | 0 |
| 1,335 | William "Black Fox" Hunter | 2:16.33 | 0 | 0 |
| 1,336 | Boomer McGeezer | 2:16.47 | 0 | 0 |
| 1,337 | capncrumbles | 2:16.49 | 0 | 0 |
| 1,338 | Solar | 2:16.55 | 0 | 0 |
| 1,339 | justpeace.jp | 2:16.65 | 0 | 0 |
| 1,340 | p k i t | 2:16.76 | 0 | 0 |
| 1,341 | Doorcrusher | 2:16.84 | 0 | 0 |
| 1,342 | CasanovaFly94 | 2:16.86 | 0 | 0 |
| 1,343 | Kalyr | 2:16.88 | 0 | 0 |
| 1,344 | Vyneci | 2:16.93 | 0 | 0 |
| 1,345 | Lambreck | 2:16.95 | 0 | 0 |
| 1,345 | StikBoy | 2:16.95 | 0 | 0 |
| 1,347 | BROODxBELEG | 2:17.04 | 0 | 0 |
| 1,348 | Apollo | 2:17.07 | 0 | 0 |
| 1,349 | Jaymber | 2:17.08 | 0 | 0 |
| 1,350 | Austin | 2:17.16 | 0 | 0 |
| 1,351 | Shyny Magikarp 🔸 | 2:17.18 | 0 | 0 |
| 1,352 | Lucky | 2:17.21 | 0 | 0 |
| 1,353 | Spagghettip | 2:17.23 | 0 | 0 |
| 1,354 | Raxus | 2:17.24 | 0 | 0 |
| 1,355 | Onur | 2:17.28 | 0 | 0 |
| 1,356 | PromE | 2:17.30 | 0 | 0 |
| 1,356 | 1996 Honda Civic EX | 2:17.30 | 0 | 0 |
| 1,358 | AndonisLP | 2:17.34 | 0 | 0 |
| 1,359 | AndreasSE93 | 2:17.42 | 0 | 0 |
| 1,360 | I'm Gay | 2:17.48 | 0 | 0 |
| 1,361 | Delta | 2:17.50 | 0 | 0 |
| 1,362 | Jkei | 2:17.61 | 0 | 0 |
| 1,363 | ScoreCount | 2:17.64 | 0 | 0 |
| 1,364 | Quadrax | 2:17.68 | 0 | 0 |
| 1,364 | DasLama | 2:17.68 | 0 | 0 |
| 1,366 | Italiansizzle | 2:17.71 | 0 | 0 |
| 1,367 | [deleted] | 2:17.72 | 0 | 0 |
| 1,368 | Indecisive | 2:17.76 | 0 | 0 |
| 1,369 | Krill | 2:17.96 | 0 | 0 |
| 1,370 | kr/ss | 2:17.97 | 0 | 0 |
| 1,371 | 𝐒𝐊𝟎𝐌𝟎𝐒 | 2:17.98 | 0 | 0 |
| 1,371 | Arcane | 2:17.98 | 0 | 0 |
| 1,373 | WTPuck | 2:18.01 | 0 | 0 |
| 1,374 | Fahrezy | 2:18.04 | 0 | 0 |
| 1,375 | Queritz | 2:18.05 | 0 | 0 |
| 1,376 | lunaxiu | 2:18.06 | 0 | 0 |
| 1,377 | Sinner | 2:18.10 | 0 | 0 |
| 1,378 | ♛𝓢𝓶𝓲𝓚♛ | 2:18.11 | 0 | 0 |
| 1,379 | SirEldricht | 2:18.16 | 0 | 0 |
| 1,380 | Lady Vira | 2:18.20 | 0 | 0 |
| 1,381 | Samuel9248 | 2:18.24 | 0 | 0 |
| 1,382 | Chaito | 2:18.26 | 0 | 0 |
| 1,382 | Stupid Bitch | 2:18.26 | 0 | 0 |
| 1,384 | redeclipse21 | 2:18.31 | 0 | 0 |
| 1,385 | Coded_Ragon | 2:18.33 | 0 | 0 |
| 1,386 | Majae102 | 2:18.41 | 0 | 0 |
| 1,386 | Teh№ [AMP] | 2:18.41 | 0 | 0 |
| 1,388 | Ouroboros | 2:18.44 | 0 | 0 |
| 1,389 | The Flickering Remnant Effigy | 2:18.51 | 0 | 0 |
| 1,390 | dragnor | 2:18.56 | 0 | 0 |
| 1,391 | Mr Plen | 2:18.60 | 0 | 0 |
| 1,392 | Gimba Cheese | 2:18.61 | 0 | 0 |
| 1,393 | Za How™ | 2:18.63 | 0 | 0 |
| 1,393 | snowstate | 2:18.63 | 0 | 0 |
| 1,395 | snakeeye98 | 2:18.67 | 0 | 0 |
| 1,396 | PΙCΛPΙCΔ | 2:18.70 | 0 | 0 |
| 1,397 | Mouldy Donut | 2:18.73 | 0 | 0 |
| 1,398 | Super Archer | 2:18.75 | 0 | 0 |
| 1,398 | Elpis Lynx | 2:18.75 | 0 | 0 |
| 1,400 | Wildclaw | 2:18.81 | 0 | 0 |
| 1,401 | ?Y/N? | 2:18.95 | 0 | 0 |
| 1,402 | DraftiestHat | 2:18.99 | 0 | 0 |
| 1,403 | [ChrisBy] | 2:19.00 | 0 | 0 |
| 1,403 | *notices ur dreams* | 2:19.00 | 0 | 0 |
| 1,403 | Billy Bat | 2:19.00 | 0 | 0 |
| 1,406 | Gleam | 2:19.02 | 0 | 0 |
| 1,406 | Isabella | 2:19.02 | 0 | 0 |
| 1,408 | we is literally the elfs | 2:19.07 | 0 | 0 |
| 1,409 | Ape Tea | 2:19.15 | 0 | 0 |
| 1,410 | VAL | Giogio | 2:19.19 | 0 | 0 |
| 1,411 | Heinous Odor | 2:19.22 | 0 | 0 |
| 1,412 | Its Blaster | 2:19.29 | 0 | 0 |
| 1,413 | Wayne | 2:19.40 | 0 | 0 |
| 1,413 | frankzirk | 2:19.40 | 0 | 0 |
| 1,415 | Oniryu | 2:19.43 | 0 | 0 |
| 1,416 | Rich Uncle Pennybags | 2:19.50 | 0 | 0 |
| 1,417 | enejūto | 2:19.52 | 0 | 0 |
| 1,418 | Loys Nuva | 2:19.54 | 0 | 0 |
| 1,419 | Phil_ | 2:19.57 | 0 | 0 |
| 1,420 | Slyxxe | 2:19.58 | 0 | 0 |
| 1,421 | Brainless | 2:19.72 | 0 | 0 |
| 1,422 | Deathbringer | 2:19.76 | 0 | 0 |
| 1,423 | Toastman | 2:19.80 | 0 | 0 |
| 1,424 | Seren | 2:19.84 | 0 | 0 |
| 1,425 | nothingisomething | 2:19.87 | 0 | 0 |
| 1,426 | Friar Buck | 2:19.91 | 0 | 0 |
| 1,426 | [AHP]Shovel/Gameslife | 2:19.91 | 0 | 0 |
| 1,428 | eMoss55 | 2:20.03 | 0 | 0 |
| 1,429 | potion | 2:20.04 | 0 | 0 |
| 1,430 | Daijoubro | 2:20.05 | 0 | 0 |
| 1,431 | ImD | 2:20.07 | 0 | 0 |
| 1,432 | Misuri | 2:20.09 | 0 | 0 |
| 1,433 | Patrick | 2:20.14 | 0 | 0 |
| 1,434 | Bobby Bodega | 2:20.18 | 0 | 0 |
| 1,435 | Redwolf | 2:20.19 | 0 | 0 |
| 1,436 | Vitiosa | 2:20.21 | 0 | 0 |
| 1,437 | 76561198295712869 | 2:20.22 | 0 | 0 |
| 1,438 | Mazdavagabundi | 2:20.23 | 0 | 0 |
| 1,438 | Kyokiri_46 | 2:20.23 | 0 | 0 |
| 1,440 | Psychochrome | 2:20.28 | 0 | 0 |
| 1,441 | CrimsonFez | 2:20.33 | 0 | 0 |
| 1,442 | AnonSchlingel | 2:20.34 | 0 | 0 |
| 1,443 | BerriesAndCream | 2:20.39 | 0 | 0 |
| 1,444 | Jeserkon | 2:20.46 | 0 | 0 |
| 1,445 | Straepuker | 2:20.47 | 0 | 0 |
| 1,446 | Bilbobangboom | 2:20.50 | 0 | 0 |
| 1,447 | Anerix (Paradox) Cormin Quanadol | 2:20.55 | 0 | 0 |
| 1,448 | Dahhkick | 2:20.57 | 0 | 0 |
| 1,449 | Ay Scruh Jum Lord | 2:20.59 | 0 | 0 |
| 1,450 | Cinder_R0se | 2:20.69 | 0 | 0 |
| 1,451 | Buca | 2:20.74 | 0 | 0 |
| 1,452 | Sr.Rojas | 2:20.80 | 0 | 0 |
| 1,453 | StarMiku039 | 2:20.89 | 0 | 0 |
| 1,454 | astralFitz | 2:20.90 | 0 | 0 |
| 1,454 | Purple | 2:20.90 | 0 | 0 |
| 1,456 | Reaster | 2:20.92 | 0 | 0 |
| 1,457 | TwistedSyn | 2:20.97 | 0 | 0 |
| 1,457 | Altersky | 2:20.97 | 0 | 0 |
| 1,459 | Torja! | 2:21.02 | 0 | 0 |
| 1,460 | Jeżyk | 2:21.03 | 0 | 0 |
| 1,461 | JustB4DW0LF | 2:21.04 | 0 | 0 |
| 1,462 | TheDukeOfTaco | 2:21.05 | 0 | 0 |
| 1,463 | Mokiflip | 2:21.10 | 0 | 0 |
| 1,464 | wes | 2:21.13 | 0 | 0 |
| 1,465 | Anomaly | 2:21.19 | 0 | 0 |
| 1,466 | Radars | 2:21.23 | 0 | 0 |
| 1,467 | Jinzø | 2:21.28 | 0 | 0 |
| 1,468 | CrimsonFox98 | 2:21.31 | 0 | 0 |
| 1,468 | B.air | 2:21.31 | 0 | 0 |
| 1,468 | Soraho | 2:21.31 | 0 | 0 |
| 1,471 | Blood Rush914 | 2:21.32 | 0 | 0 |
| 1,472 | Minefreak6633 | 2:21.39 | 0 | 0 |
| 1,473 | a funny doggirl | 2:21.43 | 0 | 0 |
| 1,474 | Tyche | 2:21.55 | 0 | 0 |
| 1,475 | TS_Mind_Swept | 2:21.56 | 0 | 0 |
| 1,476 | Yuuta | 2:21.68 | 0 | 0 |
| 1,477 | fooffie | 2:21.69 | 0 | 0 |
| 1,478 | andrew200204 | 2:21.71 | 0 | 0 |
| 1,479 | Titimilk123 | 2:21.74 | 0 | 0 |
| 1,480 | [BIT]Tonic | 2:21.89 | 0 | 0 |
| 1,481 | DarkGria | 2:21.90 | 0 | 0 |
| 1,482 | Drew | 2:21.93 | 0 | 0 |
| 1,482 | ezjenken | 2:21.93 | 0 | 0 |
| 1,484 | rip in pieces | 2:21.95 | 0 | 0 |
| 1,485 | Geraldo | 2:21.99 | 0 | 0 |
| 1,485 | Hômɓer | 2:21.99 | 0 | 0 |
| 1,487 | TiagoX_2077 | 2:22.01 | 0 | 0 |
| 1,488 | SarnPyrren | 2:22.02 | 0 | 0 |
| 1,489 | Sunkaaaaaaaaan | 2:22.15 | 0 | 0 |
| 1,490 | Queen Lilac! | 2:22.17 | 0 | 0 |
| 1,491 | Engineer Gaming | 2:22.23 | 0 | 0 |
| 1,492 | Mistfire333 | 2:22.30 | 0 | 0 |
| 1,493 | Ashton_bro | 2:22.35 | 0 | 0 |
| 1,494 | mrg.dem | 2:22.42 | 0 | 0 |
| 1,495 | Nacho2XD | 2:22.47 | 0 | 0 |
| 1,496 | Tom | 2:22.48 | 0 | 0 |
| 1,497 | crophlin | 2:22.53 | 0 | 0 |
| 1,498 | DriDri Fantaisie | 2:22.60 | 0 | 0 |
| 1,499 | Foul Energy | 2:22.74 | 0 | 0 |
| 1,500 | Zoë | 2:22.76 | 0 | 0 |
| 1,501 | Corvon | 2:22.77 | 0 | 0 |
| 1,501 | ShaK'1.0 | 2:22.77 | 0 | 0 |
| 1,503 | pixel | 2:22.83 | 0 | 0 |
| 1,504 | Skuzzles | 2:22.86 | 0 | 0 |
| 1,505 | Nevorist | 2:23.03 | 0 | 0 |
| 1,506 | nepvee | 2:23.11 | 0 | 0 |
| 1,507 | Pappaknupp | 2:23.13 | 0 | 0 |
| 1,507 | Lunathrael | 2:23.13 | 0 | 0 |
| 1,509 | Septagon | 2:23.15 | 0 | 0 |
| 1,510 | Gallifrey 10-0-11-00:02 | 2:23.17 | 0 | 0 |
| 1,511 | Foxx | 2:23.20 | 0 | 0 |
| 1,512 | Haymú | 2:23.22 | 0 | 0 |
| 1,513 | DKegs | 2:23.28 | 0 | 0 |
| 1,514 | WiseWolf27 | 2:23.33 | 0 | 0 |
| 1,515 | Redx | 2:23.34 | 0 | 0 |
| 1,516 | The 2000 Minnesota Vikings | 2:23.38 | 0 | 0 |
| 1,517 | seismo98 | 2:23.41 | 0 | 0 |
| 1,518 | Winter Rose | 2:23.42 | 0 | 0 |
| 1,519 | Glypse | 2:23.45 | 0 | 0 |
| 1,520 | Pigeon Hacker | 2:23.46 | 0 | 0 |
| 1,521 | Ironman_2099 | 2:23.51 | 0 | 0 |
| 1,522 | Lokorit | 2:23.55 | 0 | 0 |
| 1,523 | WR ParTwo | 2:23.69 | 0 | 0 |
| 1,524 | 76561198057281750 | 2:23.91 | 0 | 0 |
| 1,525 | Bdub 𒉭 240km/h PEEK | 2:23.95 | 0 | 0 |
| 1,526 | ANTS IN MY EYES JOHNSON | 2:23.99 | 0 | 0 |
| 1,527 | Justin | 2:24.01 | 0 | 0 |
| 1,528 | Faisal | 2:24.04 | 0 | 0 |
| 1,529 | Rude | 2:24.07 | 0 | 0 |
| 1,529 | WSBat | 2:24.07 | 0 | 0 |
| 1,531 | FourFootProdigy | 2:24.18 | 0 | 0 |
| 1,532 | Tokyo. | 2:24.22 | 0 | 0 |
| 1,533 | Goshanchik1337 | 2:24.23 | 0 | 0 |
| 1,534 | Noxelis | 2:24.38 | 0 | 0 |
| 1,534 | frode | 2:24.38 | 0 | 0 |
| 1,536 | nenadalm | 2:24.45 | 0 | 0 |
| 1,537 | Teqila | 2:24.49 | 0 | 0 |
| 1,538 | Bunzzy | 2:24.54 | 0 | 0 |
| 1,539 | Infamous | 2:24.55 | 0 | 0 |
| 1,540 | Maj. Pegger | 2:24.86 | 0 | 0 |
| 1,541 | CloudBirb | 2:24.87 | 0 | 0 |
| 1,542 | Horizon | 2:24.90 | 0 | 0 |
| 1,542 | xxhazfunxx | 2:24.90 | 0 | 0 |
| 1,544 | Tmax | 2:24.94 | 0 | 0 |
| 1,545 | Wulg | 2:24.95 | 0 | 0 |
| 1,546 | marnier | 2:24.97 | 0 | 0 |
| 1,547 | KettleTicket | 2:24.99 | 0 | 0 |
| 1,548 | SkyCaptain502 | 2:25.02 | 0 | 0 |
| 1,548 | SGiB2001 | 2:25.02 | 0 | 0 |
| 1,550 | Wadeos | 2:25.03 | 0 | 0 |
| 1,551 | uncle allah | 2:25.13 | 0 | 0 |
| 1,552 | CoffeeGremlin | 2:25.22 | 0 | 0 |
| 1,553 | Echor | 2:25.23 | 0 | 0 |
| 1,554 | Tecknoth | 2:25.26 | 0 | 0 |
| 1,555 | MusicPilot n.5 | 2:25.28 | 0 | 0 |
| 1,556 | fightman | 2:25.29 | 0 | 0 |
| 1,557 | Pink | 2:25.30 | 0 | 0 |
| 1,558 | Den1sArt | 2:25.34 | 0 | 0 |
| 1,558 | JokersBullet12 | 2:25.34 | 0 | 0 |
| 1,560 | MrMister | 2:25.39 | 0 | 0 |
| 1,561 | MFG38 | 2:25.51 | 0 | 0 |
| 1,561 | Dropkick | 2:25.51 | 0 | 0 |
| 1,563 | Евгений Пригожин | 2:25.53 | 0 | 0 |
| 1,564 | arafis1 | 2:25.54 | 0 | 0 |
| 1,565 | Fromage | 2:25.59 | 0 | 0 |
| 1,566 | achoo | 2:25.64 | 0 | 0 |
| 1,567 | Lamp | 2:25.72 | 0 | 0 |
| 1,568 | Kuyuto | 2:25.75 | 0 | 0 |
| 1,569 | RozZarck | 2:26.00 | 0 | 0 |
| 1,570 | Jerico Pepino | 2:26.02 | 0 | 0 |
| 1,571 | Pexillien | 2:26.03 | 0 | 0 |
| 1,572 | [funky electronic music] | 2:26.05 | 0 | 0 |
| 1,573 | Rhy | 2:26.10 | 0 | 0 |
| 1,574 | sparrow16 | 2:26.13 | 0 | 0 |
| 1,575 | forestbeasts | 2:26.19 | 0 | 0 |
| 1,575 | TeidänHessuutenne | 2:26.19 | 0 | 0 |
| 1,577 | F_ckYouILikeTea | 2:26.21 | 0 | 0 |
| 1,578 | RitchiArts | 2:26.38 | 0 | 0 |
| 1,579 | Sondren1288 | 2:26.39 | 0 | 0 |
| 1,579 | SilverRexy❤ | 2:26.39 | 0 | 0 |
| 1,581 | adobesmurf | 2:26.43 | 0 | 0 |
| 1,582 | Chef Boyarvee | 2:26.55 | 0 | 0 |
| 1,583 | Reid | 2:26.58 | 0 | 0 |
| 1,584 | CptBlaze | 2:26.62 | 0 | 0 |
| 1,585 | Intellibastard | 2:26.63 | 0 | 0 |
| 1,586 | TBFreak | 2:26.65 | 0 | 0 |
| 1,587 | Chated | 2:26.67 | 0 | 0 |
| 1,588 | Uranos | 2:26.69 | 0 | 0 |
| 1,589 | Cosmic0de | 2:26.71 | 0 | 0 |
| 1,590 | EndersReal10 | 2:26.72 | 0 | 0 |
| 1,591 | TheMaddawg | 2:26.73 | 0 | 0 |
| 1,592 | Nova | 2:26.74 | 0 | 0 |
| 1,593 | Nanohm The Protogen | 2:26.81 | 0 | 0 |
| 1,594 | Melon | 2:26.82 | 0 | 0 |
| 1,595 | 2:27.06 | 0 | 0 | |
| 1,596 | ShadeSlayer24 | 2:27.11 | 0 | 0 |
| 1,597 | light | 2:27.12 | 0 | 0 |
| 1,598 | grzhan | 2:27.15 | 0 | 0 |
| 1,599 | Sunflower | 2:27.18 | 0 | 0 |
| 1,600 | shroomologist | 2:27.19 | 0 | 0 |
| 1,601 | Gecko95 | 2:27.29 | 0 | 0 |
| 1,602 | pnut | 2:27.34 | 0 | 0 |
| 1,603 | AlShMyRy1313 | 2:27.40 | 0 | 0 |
| 1,604 | Zill | 2:27.49 | 0 | 0 |
| 1,605 | Weird Pumpkin | 2:27.50 | 0 | 0 |
| 1,606 | Strawberry ice GeekBar | 2:27.67 | 0 | 0 |
| 1,607 | Mithrarim | 2:27.69 | 0 | 0 |
| 1,608 | destiny.fate22 | 2:27.76 | 0 | 0 |
| 1,609 | Sharkbubble | 2:27.77 | 0 | 0 |
| 1,610 | Studkip | 2:27.78 | 0 | 0 |
| 1,611 | Nicholas | 2:27.88 | 0 | 0 |
| 1,612 | Pureception | 2:27.95 | 0 | 0 |
| 1,613 | Musty Sock | 2:27.99 | 0 | 0 |
| 1,614 | Marko M | 2:28.01 | 0 | 0 |
| 1,615 | SmolSucc | 2:28.13 | 0 | 0 |
| 1,616 | Renault Modus phase 2 | 2:28.16 | 0 | 0 |
| 1,617 | Guelah Papyrus | 2:28.22 | 0 | 0 |
| 1,618 | A | 2:28.24 | 0 | 0 |
| 1,619 | imxRaven | 2:28.28 | 0 | 0 |
| 1,620 | hb33green | 2:28.30 | 0 | 0 |
| 1,620 | sschooryy | 2:28.30 | 0 | 0 |
| 1,620 | squaredanced | 2:28.30 | 0 | 0 |
| 1,623 | Sgt. Giclette | 2:28.32 | 0 | 0 |
| 1,624 | shrümii | 2:28.34 | 0 | 0 |
| 1,624 | Relic | 2:28.34 | 0 | 0 |
| 1,626 | |RedCCC| | 2:28.47 | 0 | 0 |
| 1,627 | Copperheart | 2:28.49 | 0 | 0 |
| 1,628 | StealthSan | 2:28.59 | 0 | 0 |
| 1,628 | rob | 2:28.59 | 0 | 0 |
| 1,630 | PandaDr | 2:28.62 | 0 | 0 |
| 1,631 | Günther Fox | 2:28.67 | 0 | 0 |
| 1,632 | Razgriz001 | 2:28.74 | 0 | 0 |
| 1,633 | sWilder9 | 2:28.95 | 0 | 0 |
| 1,634 | Ke1go360 | 2:28.96 | 0 | 0 |
| 1,635 | Davonavik | 2:28.97 | 0 | 0 |
| 1,636 | [REDACTED] | 2:29.07 | 0 | 0 |
| 1,637 | MarlinMcFish | 2:29.15 | 0 | 0 |
| 1,638 | f r o o g | 2:29.30 | 0 | 0 |
| 1,639 | Clockaru | 2:29.57 | 0 | 0 |
| 1,639 | StormZ | 2:29.57 | 0 | 0 |
| 1,641 | Pregnant | 2:29.62 | 0 | 0 |
| 1,642 | Zenixic | 2:29.70 | 0 | 0 |
| 1,642 | icecubeonfire13 | 2:29.70 | 0 | 0 |
| 1,644 | [deleted] | 2:29.74 | 0 | 0 |
| 1,645 | Enthrall Decree | 2:29.75 | 0 | 0 |
| 1,645 | Lil O.D. | 2:29.75 | 0 | 0 |
| 1,647 | Ashen | 2:29.77 | 0 | 0 |
| 1,648 | (erk) WHATTTTT | 2:29.92 | 0 | 0 |
| 1,649 | Silverstop | 2:30.00 | 0 | 0 |
| 1,649 | Cloudy | 2:30.00 | 0 | 0 |
| 1,651 | Alex | 2:30.18 | 0 | 0 |
| 1,652 | Big Disk | 2:30.27 | 0 | 0 |
| 1,653 | Critiq | 2:30.52 | 0 | 0 |
| 1,654 | Valoutre | 2:30.58 | 0 | 0 |
| 1,654 | vadimchelov | 2:30.58 | 0 | 0 |
| 1,656 | pg9000 | 2:30.65 | 0 | 0 |
| 1,657 | De_etz | 2:30.70 | 0 | 0 |
| 1,658 | spires | 2:30.72 | 0 | 0 |
| 1,659 | HUSTLER | 2:30.76 | 0 | 0 |
| 1,660 | Duzzzey | 2:30.79 | 0 | 0 |
| 1,661 | Beef | 2:30.92 | 0 | 0 |
| 1,662 | AbakanGuy | 2:31.09 | 0 | 0 |
| 1,663 | CasePB | 2:31.30 | 0 | 0 |
| 1,664 | sam | 2:31.42 | 0 | 0 |
| 1,665 | Garstine | 2:31.46 | 0 | 0 |
| 1,666 | Nickel234 | 2:31.55 | 0 | 0 |
| 1,667 | ⛧CR4CKERS⛧ | 2:31.66 | 0 | 0 |
| 1,668 | Adri | 2:31.67 | 0 | 0 |
| 1,669 | Julia_will_spielen | 2:31.78 | 0 | 0 |
| 1,670 | Kashatriya | 2:32.01 | 0 | 0 |
| 1,671 | G | 2:32.07 | 0 | 0 |
| 1,672 | OddlyFrosty | 2:32.21 | 0 | 0 |
| 1,673 | AlbinoBlueJay | 2:32.34 | 0 | 0 |
| 1,674 | Hanimani2 | 2:32.45 | 0 | 0 |
| 1,675 | phylum sinter | 2:32.50 | 0 | 0 |
| 1,676 | tapmasterj14 | 2:32.52 | 0 | 0 |
| 1,677 | GOOSE SATAN! | 2:32.60 | 0 | 0 |
| 1,678 | TychoDragon | 2:32.94 | 0 | 0 |
| 1,678 | ILikeBigBoats | 2:32.94 | 0 | 0 |
| 1,680 | oatmealcookie | 2:33.01 | 0 | 0 |
| 1,681 | SharoffKot | 2:33.03 | 0 | 0 |
| 1,682 | RoyalWizard | 2:33.10 | 0 | 0 |
| 1,683 | noogis | 2:33.15 | 0 | 0 |
| 1,683 | SHUPINKLES | 2:33.15 | 0 | 0 |
| 1,685 | Ices Blaze | 2:33.60 | 0 | 0 |
| 1,686 | Tasha | 2:33.77 | 0 | 0 |
| 1,687 | Nova | 2:33.91 | 0 | 0 |
| 1,688 | xander | 2:33.98 | 0 | 0 |
| 1,689 | XatiX | 2:34.05 | 0 | 0 |
| 1,690 | Dr. Duder | 2:34.20 | 0 | 0 |
| 1,691 | thefierce | 2:34.21 | 0 | 0 |
| 1,692 | LuckyFoot | 2:34.44 | 0 | 0 |
| 1,693 | xy01 | 2:34.61 | 0 | 0 |
| 1,694 | Stripe Gurger | 2:34.68 | 0 | 0 |
| 1,695 | Stinky | 2:34.69 | 0 | 0 |
| 1,696 | Lighti | 2:34.70 | 0 | 0 |
| 1,697 | Alpha | 2:34.73 | 0 | 0 |
| 1,698 | M.C. Splashdown | 2:34.90 | 0 | 0 |
| 1,699 | oskolok | 2:34.91 | 0 | 0 |
| 1,700 | SKYWARP747 | 2:35.00 | 0 | 0 |
| 1,701 | lgbuilder | 2:35.03 | 0 | 0 |
| 1,702 | Zanaro | 2:35.06 | 0 | 0 |
| 1,703 | 1Hp♰ | 2:35.13 | 0 | 0 |
| 1,704 | Gefafawhisp | 2:35.20 | 0 | 0 |
| 1,705 | sammiee | 2:35.34 | 0 | 0 |
| 1,706 | Casmo | 2:35.45 | 0 | 0 |
| 1,707 | Чаечек ☂ | 2:35.59 | 0 | 0 |
| 1,708 | yegor.zenkov | 2:35.65 | 0 | 0 |
| 1,709 | Mr. Guubisen | 2:35.77 | 0 | 0 |
| 1,710 | Blue | 2:35.79 | 0 | 0 |
| 1,711 | rezzonating | 2:35.81 | 0 | 0 |
| 1,712 | Bear | 2:35.87 | 0 | 0 |
| 1,713 | Legadon | 2:35.98 | 0 | 0 |
| 1,714 | Protoboyo57 | 2:36.15 | 0 | 0 |
| 1,715 | Victor"LaSeta"Perez | 2:36.18 | 0 | 0 |
| 1,716 | Lemonist | 2:36.20 | 0 | 0 |
| 1,717 | Beskar | 2:36.27 | 0 | 0 |
| 1,717 | DamnedDeyvid | 2:36.27 | 0 | 0 |
| 1,719 | CamTheFriendly | 2:36.41 | 0 | 0 |
| 1,720 | Black02 | 2:36.43 | 0 | 0 |
| 1,721 | maya | 2:36.57 | 0 | 0 |
| 1,722 | Zombiebot King | 2:36.68 | 0 | 0 |
| 1,723 | Creepersrock24Gaming | 2:36.81 | 0 | 0 |
| 1,724 | General Kenobi | 2:36.85 | 0 | 0 |
| 1,725 | Лолисичка | 2:37.00 | 0 | 0 |
| 1,726 | CoreOG | 2:37.24 | 0 | 0 |
| 1,727 | TheGrandWeeaboo | 2:37.32 | 0 | 0 |
| 1,728 | CatMeme | 2:37.43 | 0 | 0 |
| 1,729 | Horus1939 | 2:37.50 | 0 | 0 |
| 1,730 | KryptoPX | 2:37.51 | 0 | 0 |
| 1,731 | spencer.hargiss | 2:37.52 | 0 | 0 |
| 1,732 | HRTBT | 2:37.67 | 0 | 0 |
| 1,733 | etheweirdo | 2:37.69 | 0 | 0 |
| 1,734 | [AGN] AlienX | 2:37.72 | 0 | 0 |
| 1,735 | KikirP キル | 2:37.78 | 0 | 0 |
| 1,736 | Amethos | 2:37.91 | 0 | 0 |
| 1,737 | Frit_/x/ | 2:38.11 | 0 | 0 |
| 1,738 | Chaos | 2:38.13 | 0 | 0 |
| 1,739 | Metvra | 2:38.59 | 0 | 0 |
| 1,740 | Bum112 | 2:38.64 | 0 | 0 |
| 1,741 | Apple | 2:38.68 | 0 | 0 |
| 1,742 | Regis-Robert | 2:38.97 | 0 | 0 |
| 1,743 | Corvus and Crater | 2:39.06 | 0 | 0 |
| 1,744 | kwis | 2:39.07 | 0 | 0 |
| 1,745 | hyperMaxy | 2:39.11 | 0 | 0 |
| 1,746 | SquishyNimbus | 2:39.12 | 0 | 0 |
| 1,747 | MsKittyCakes | 2:39.15 | 0 | 0 |
| 1,748 | Ikusora | 2:39.18 | 0 | 0 |
| 1,749 | QB_Fox | 2:39.33 | 0 | 0 |
| 1,750 | yuri gagarin's creamy interior | 2:39.42 | 0 | 0 |
| 1,751 | Azy | 2:39.44 | 0 | 0 |
| 1,752 | Siyzerix | 2:39.47 | 0 | 0 |
| 1,753 | Janos Bartok, Esq. | 2:39.56 | 0 | 0 |
| 1,754 | VenomGhost | 2:39.94 | 0 | 0 |
| 1,755 | Mouseochism | 2:39.96 | 0 | 0 |
| 1,756 | BudaChow | 2:40.05 | 0 | 0 |
| 1,757 | ghrocker31 | 2:40.43 | 0 | 0 |
| 1,758 | ARandomEel | 2:40.47 | 0 | 0 |
| 1,759 | BugJams | 2:40.59 | 0 | 0 |
| 1,760 | NekoNachi | 2:40.61 | 0 | 0 |
| 1,761 | Mr. Brightside | 2:40.77 | 0 | 0 |
| 1,762 | Damok | 2:40.92 | 0 | 0 |
| 1,763 | Lengray | 2:41.45 | 0 | 0 |
| 1,764 | Voltsu | 2:41.55 | 0 | 0 |
| 1,765 | Miinimusi | 2:41.64 | 0 | 0 |
| 1,766 | < M A T > | 2:42.21 | 0 | 0 |
| 1,766 | Marc | 2:42.21 | 0 | 0 |
| 1,768 | The Old Gamer | 2:42.23 | 0 | 0 |
| 1,769 | Skybox | 2:42.48 | 0 | 0 |
| 1,770 | Cazzed | 2:42.60 | 0 | 0 |
| 1,771 | Greeny^ | 2:42.61 | 0 | 0 |
| 1,772 | [CPC] Loddfafnir | 2:43.04 | 0 | 0 |
| 1,773 | [deleted] | 2:43.10 | 0 | 0 |
| 1,774 | Katastrophe | 2:43.23 | 0 | 0 |
| 1,775 | Phoenix (Nixsoul) | 2:43.33 | 0 | 0 |
| 1,776 | taffyko | 2:43.35 | 0 | 0 |
| 1,777 | DreamHazard | 2:43.37 | 0 | 0 |
| 1,778 | Reparo | 2:43.46 | 0 | 0 |
| 1,778 | GrayHat | 2:43.46 | 0 | 0 |
| 1,780 | Mettaray | 2:43.48 | 0 | 0 |
| 1,781 | Julian :-) | 2:43.69 | 0 | 0 |
| 1,782 | bee40 | 2:43.71 | 0 | 0 |
| 1,783 | Aggressive Nerd | 2:43.92 | 0 | 0 |
| 1,784 | SneakySN | 2:43.93 | 0 | 0 |
| 1,785 | Yaharon | 2:44.04 | 0 | 0 |
| 1,786 | YasMaster141 | 2:44.11 | 0 | 0 |
| 1,787 | Ghost | 2:44.32 | 0 | 0 |
| 1,788 | Jtd1973 | 2:44.61 | 0 | 0 |
| 1,789 | Afromation | 2:44.64 | 0 | 0 |
| 1,790 | det.maginer | 2:44.88 | 0 | 0 |
| 1,790 | Samuel | 2:44.88 | 0 | 0 |
| 1,792 | Rieper | 2:44.89 | 0 | 0 |
| 1,793 | Qirate | 2:44.90 | 0 | 0 |
| 1,794 | Zaksar | 2:44.91 | 0 | 0 |
| 1,795 | Varlok | 2:44.95 | 0 | 0 |
| 1,796 | MR.CH33ZZY 63 | 2:44.99 | 0 | 0 |
| 1,797 | realCoda | 2:45.18 | 0 | 0 |
| 1,798 | Kathumandu | 2:45.23 | 0 | 0 |
| 1,799 | Mathias | 2:45.36 | 0 | 0 |
| 1,800 | Positive | 2:45.37 | 0 | 0 |
| 1,801 | DxSoul | 2:45.53 | 0 | 0 |
| 1,802 | OrionWolf | 2:45.67 | 0 | 0 |
| 1,803 | anil | 2:46.58 | 0 | 0 |
| 1,804 | Ray | 2:46.67 | 0 | 0 |
| 1,805 | CyberStorm | 2:46.78 | 0 | 0 |
| 1,805 | ᴼᶯᶥᵏᵃᶥᶜʰᶥ ™ | 2:46.78 | 0 | 0 |
| 1,807 | doogman | 2:46.94 | 0 | 0 |
| 1,808 | RDDG321 | 2:47.05 | 0 | 0 |
| 1,809 | kanko | 2:47.16 | 0 | 0 |
| 1,810 | Mastermoind | 2:47.62 | 0 | 0 |
| 1,811 | Choomeee | 2:47.80 | 0 | 0 |
| 1,812 | Sabre | 2:47.82 | 0 | 0 |
| 1,813 | Pete | 2:47.92 | 0 | 0 |
| 1,814 | BYTC | 2:48.10 | 0 | 0 |
| 1,815 | Nailuj 13 | 2:48.16 | 0 | 0 |
| 1,816 | -_Nero_- | 2:49.12 | 0 | 0 |
| 1,817 | 76561199053591580 | 2:49.15 | 0 | 0 |
| 1,818 | SpaceGlam | 2:49.55 | 0 | 0 |
| 1,819 | milkman | 2:49.62 | 0 | 0 |
| 1,820 | Psychotia | 2:50.27 | 0 | 0 |
| 1,821 | QueenRupti | 2:50.79 | 0 | 0 |
| 1,822 | Pinguin | 2:50.98 | 0 | 0 |
| 1,823 | sormes | 2:51.03 | 0 | 0 |
| 1,824 | maverick2041 | 2:51.18 | 0 | 0 |
| 1,824 | ZSoup | 2:51.18 | 0 | 0 |
| 1,826 | chillaGorilla | 2:51.27 | 0 | 0 |
| 1,827 | Sup3rUnicornGuy | 2:51.29 | 0 | 0 |
| 1,828 | Jupiter One | 2:51.43 | 0 | 0 |
| 1,829 | Cake | 2:51.53 | 0 | 0 |
| 1,830 | Avatar | 2:52.19 | 0 | 0 |
| 1,831 | Ungarr | 2:52.21 | 0 | 0 |
| 1,832 | Wolf Cola™ | 2:52.37 | 0 | 0 |
| 1,833 | nl_nikiforova1981 | 2:52.62 | 0 | 0 |
| 1,834 | le Glode | 2:52.73 | 0 | 0 |
| 1,835 | Dancin | 2:52.84 | 0 | 0 |
| 1,836 | CORRUPTOR 2037 | 2:53.11 | 0 | 0 |
| 1,837 | vintokek | 2:53.30 | 0 | 0 |
| 1,838 | NoCappuccino | 2:53.35 | 0 | 0 |
| 1,839 | GHOSTWICK | 2:53.50 | 0 | 0 |
| 1,840 | Rerun | 2:53.80 | 0 | 0 |
| 1,841 | Merkuri16 | 2:53.82 | 0 | 0 |
| 1,842 | wEEb Trash | 2:54.03 | 0 | 0 |
| 1,843 | Kvothe | 2:54.16 | 0 | 0 |
| 1,844 | baybapbob | 2:54.31 | 0 | 0 |
| 1,845 | Fearture | 2:54.45 | 0 | 0 |
| 1,846 | [deleted] | 2:54.66 | 0 | 0 |
| 1,847 | Mr Icarus | 2:55.21 | 0 | 0 |
| 1,848 | Jakl635 | 2:55.28 | 0 | 0 |
| 1,849 | •._.• games647 •._.• | 2:55.31 | 0 | 0 |
| 1,850 | BerylRose | 2:55.45 | 0 | 0 |
| 1,851 | De Poolse Jager | 2:55.68 | 0 | 0 |
| 1,851 | HPediem | 2:55.68 | 0 | 0 |
| 1,853 | Cyero | 2:55.70 | 0 | 0 |
| 1,854 | LIGHTNING THE FOX | 2:55.77 | 0 | 0 |
| 1,854 | Maxormous W.I.B. | 2:55.77 | 0 | 0 |
| 1,856 | AmbassadorPineapple | 2:56.17 | 0 | 0 |
| 1,857 | XXX-Defalt-XXX | 2:56.20 | 0 | 0 |
| 1,858 | Gandalf the Moist | 2:56.27 | 0 | 0 |
| 1,859 | GenosEh | 2:56.31 | 0 | 0 |
| 1,860 | Damo | 2:56.53 | 0 | 0 |
| 1,861 | Eclipse | 2:56.55 | 0 | 0 |
| 1,862 | acro | 2:56.58 | 0 | 0 |
| 1,863 | Lord_Keldar | 2:56.91 | 0 | 0 |
| 1,864 | Honda | 2:56.98 | 0 | 0 |
| 1,865 | Bishop][ | 2:57.01 | 0 | 0 |
| 1,865 | smashingdrop17 | 2:57.01 | 0 | 0 |
| 1,867 | Computer | 2:57.10 | 0 | 0 |
| 1,868 | Discussor | 2:57.15 | 0 | 0 |
| 1,869 | DawnOfRiku | 2:57.22 | 0 | 0 |
| 1,870 | FyreWall | 2:57.27 | 0 | 0 |
| 1,871 | POLARIS_UK | 2:57.85 | 0 | 0 |
| 1,872 | kdnr | 2:58.10 | 0 | 0 |
| 1,873 | Capt.MordecaiMurdock | 2:58.11 | 0 | 0 |
| 1,874 | The Mighty Spoon™ | 2:58.32 | 0 | 0 |
| 1,875 | Tvirus | 2:58.42 | 0 | 0 |
| 1,876 | spectre | 2:58.57 | 0 | 0 |
| 1,877 | CrazyManth3 | 2:58.67 | 0 | 0 |
| 1,878 | XIII | 2:58.78 | 0 | 0 |
| 1,879 | WitchOnFire | 2:58.89 | 0 | 0 |
| 1,880 | cas8002 | 2:59.42 | 0 | 0 |
| 1,881 | The Ghost of CougarSlayer420 | 2:59.45 | 0 | 0 |
| 1,882 | SpreemCreme | 3:00.08 | 0 | 0 |
| 1,883 | Cho Wang | 3:00.13 | 0 | 0 |
| 1,884 | Butchfrench | 3:00.77 | 0 | 0 |
| 1,885 | Cujo Cat :3 | 3:00.81 | 0 | 0 |
| 1,886 | justsomeguy777 | 3:00.84 | 0 | 0 |
| 1,887 | Zero | 3:01.10 | 0 | 0 |
| 1,888 | Schranzinator | 3:01.13 | 0 | 0 |
| 1,889 | Zayn | 3:01.42 | 0 | 0 |
| 1,890 | Vypr | 3:01.45 | 0 | 0 |
| 1,891 | Uncle Pep Pep | 3:01.64 | 0 | 0 |
| 1,892 | 4zra3l | 3:01.80 | 0 | 0 |
| 1,893 | Spurlz | 3:02.41 | 0 | 0 |
| 1,894 | Fox | 3:03.05 | 0 | 0 |
| 1,895 | Bob | 3:03.39 | 0 | 0 |
| 1,896 | Wolfy Neah | 3:03.78 | 0 | 0 |
| 1,897 | autistic pringle | 3:03.82 | 0 | 0 |
| 1,898 | Tim | 3:04.83 | 0 | 0 |
| 1,899 | BenBeJamIn | 3:05.22 | 0 | 0 |
| 1,900 | A Lizard | 3:05.41 | 0 | 0 |
| 1,901 | blep | 3:05.48 | 0 | 0 |
| 1,902 | Mr Cartmenez | 3:05.52 | 0 | 0 |
| 1,903 | Binko Bonko | 3:05.83 | 0 | 0 |
| 1,904 | Mr_Rose | 3:06.06 | 0 | 0 |
| 1,905 | MoondustIsPoison | 3:06.85 | 0 | 0 |
| 1,906 | $teveɳ | 3:06.87 | 0 | 0 |
| 1,907 | Viran | 3:07.47 | 0 | 0 |
| 1,908 | Geocorn | 3:07.49 | 0 | 0 |
| 1,909 | Soupbowl | 3:07.94 | 0 | 0 |
| 1,910 | zl | 3:08.43 | 0 | 0 |
| 1,911 | Kiwora | 3:09.69 | 0 | 0 |
| 1,912 | VivaVii | 3:10.26 | 0 | 0 |
| 1,913 | Ace Combo | 3:10.40 | 0 | 0 |
| 1,914 | CookieCake | 3:10.58 | 0 | 0 |
| 1,915 | 3V13 | 3:10.84 | 0 | 0 |
| 1,916 | LelouchXV3 | 3:10.93 | 0 | 0 |
| 1,917 | Fazz! | 3:11.25 | 0 | 0 |
| 1,918 | Yessirski | 3:11.81 | 0 | 0 |
| 1,919 | thetruecow56 | 3:12.79 | 0 | 0 |
| 1,920 | Pixelbo | 3:12.81 | 0 | 0 |
| 1,921 | byanymeansnecessary | 3:12.84 | 0 | 0 |
| 1,922 | Maginomicon | 3:13.18 | 0 | 0 |
| 1,923 | Simer_Soul | 3:13.30 | 0 | 0 |
| 1,924 | zynatron | 3:13.44 | 0 | 0 |
| 1,925 | BIBABOBA | 3:14.10 | 0 | 0 |
| 1,926 | GR4PHIX | 3:14.27 | 0 | 0 |
| 1,927 | Blackie Chan | 3:15.18 | 0 | 0 |
| 1,928 | Xenu | 3:16.40 | 0 | 0 |
| 1,929 | CalicoJack | 3:16.73 | 0 | 0 |
| 1,930 | DrPiggler | 3:17.16 | 0 | 0 |
| 1,931 | hellpigz | 3:17.39 | 0 | 0 |
| 1,932 | exodus | 3:19.95 | 0 | 0 |
| 1,933 | Pfirsichgelee | 3:19.99 | 0 | 0 |
| 1,934 | Pwny | 3:21.01 | 0 | 0 |
| 1,935 | ~Astral Skies~ | 3:21.21 | 0 | 0 |
| 1,936 | ElOsoPervertido | 3:21.89 | 0 | 0 |
| 1,937 | Fungus | 3:21.93 | 0 | 0 |
| 1,938 | Phaserlight | 3:23.21 | 0 | 0 |
| 1,939 | KuroExoNeko | 3:23.92 | 0 | 0 |
| 1,940 | false | 3:24.43 | 0 | 0 |
| 1,941 | SMUG KITTY | 3:25.73 | 0 | 0 |
| 1,941 | Acedia | 3:25.73 | 0 | 0 |
| 1,943 | Hatszög | 3:28.31 | 0 | 0 |
| 1,944 | Funky Jim | 3:28.38 | 0 | 0 |
| 1,945 | dylanwill | 3:28.83 | 0 | 0 |
| 1,946 | Mama Luigi | 3:28.99 | 0 | 0 |
| 1,947 | Zero_Antlax | 3:29.00 | 0 | 0 |
| 1,948 | Eggs Benedict | 3:29.27 | 0 | 0 |
| 1,949 | fjccastr1 | 3:30.33 | 0 | 0 |
| 1,950 | alkiholl | 3:30.62 | 0 | 0 |
| 1,951 | lgblank | 3:32.53 | 0 | 0 |
| 1,952 | Takijo | 3:32.64 | 0 | 0 |
| 1,953 | Rainquack | 3:33.66 | 0 | 0 |
| 1,954 | Logan | 3:34.13 | 0 | 0 |
| 1,955 | acerisodd | 3:34.96 | 0 | 0 |
| 1,956 | Bun Bun | 3:35.20 | 0 | 0 |
| 1,957 | Pipe | 3:36.44 | 0 | 0 |
| 1,958 | Sutulaya dog | 3:36.47 | 0 | 0 |
| 1,959 | t1000android | 3:36.67 | 0 | 0 |
| 1,960 | Entropy can't catch me. | 3:37.37 | 0 | 0 |
| 1,961 | concil | 3:39.71 | 0 | 0 |
| 1,962 | [BJZ] wblo | 3:41.43 | 0 | 0 |
| 1,963 | dpupet | 3:41.71 | 0 | 0 |
| 1,964 | Zloxite | 3:43.05 | 0 | 0 |
| 1,965 | EddoXD | 3:44.34 | 0 | 0 |
| 1,966 | V10lator | 3:45.34 | 0 | 0 |
| 1,967 | RasssCAT | 3:45.44 | 0 | 0 |
| 1,968 | Snayssin | 3:46.75 | 0 | 0 |
| 1,969 | javadgolji | 3:46.97 | 0 | 0 |
| 1,970 | DrPepperMan | 3:47.55 | 0 | 0 |
| 1,971 | MrDrunk | 3:47.95 | 0 | 0 |
| 1,972 | Bobeye | 3:48.76 | 0 | 0 |
| 1,973 | [deleted] | 3:49.18 | 0 | 0 |
| 1,974 | Ov3rTilt | 3:50.45 | 0 | 0 |
| 1,975 | Uldergoff | 3:50.81 | 0 | 0 |
| 1,976 | Líong Phük | 3:53.26 | 0 | 0 |
| 1,977 | UnknDoomer | 3:54.01 | 0 | 0 |
| 1,978 | VentureOasis | 3:55.00 | 0 | 0 |
| 1,979 | Diablo | 3:55.61 | 0 | 0 |
| 1,980 | Thrillhouse | 3:55.89 | 0 | 0 |
| 1,981 | ding | 3:57.71 | 0 | 0 |
| 1,982 | mirroryubel | 3:59.26 | 0 | 0 |
| 1,983 | DesHex | 3:59.40 | 0 | 0 |
| 1,984 | O C T A N | 3:59.92 | 0 | 0 |
| 1,985 | PocketLolly | 4:00.59 | 0 | 0 |
| 1,986 | Minyon69 | 4:00.66 | 0 | 0 |
| 1,987 | svarnypetr | 4:02.50 | 0 | 0 |
| 1,988 | davislb2 | 4:03.09 | 0 | 0 |
| 1,989 | supa scoopa | 4:04.81 | 0 | 0 |
| 1,990 | BoostedMess | 4:06.16 | 0 | 0 |
| 1,991 | even creepier loser hatsune miku | 4:09.13 | 0 | 0 |
| 1,992 | Lecougarhunter | 4:11.40 | 0 | 0 |
| 1,993 | edc | 4:11.71 | 0 | 0 |
| 1,994 | cjay_mtb | 4:12.05 | 0 | 0 |
| 1,995 | XxBrixlyxX | 4:12.15 | 0 | 0 |
| 1,996 | lord_astfgl | 4:12.80 | 0 | 0 |
| 1,997 | Exposure | 4:13.08 | 0 | 0 |
| 1,998 | thlnkd | 4:20.46 | 0 | 0 |
| 1,999 | shirui. | 4:28.08 | 0 | 0 |
| 2,000 | Chains- | 4:31.89 | 0 | 0 |
| 2,001 | Buttlet | 4:32.72 | 0 | 0 |
| 2,002 | ThumpieBunnyEve | 4:33.85 | 0 | 0 |
| 2,003 | German_GK | 4:34.65 | 0 | 0 |
| 2,004 | Comatose Boy | 4:34.82 | 0 | 0 |
| 2,005 | Greece-Milk | 4:34.87 | 0 | 0 |
| 2,006 | KulerRuler | 4:41.56 | 0 | 0 |
| 2,007 | Al3x_Ter | 4:44.21 | 0 | 0 |
| 2,008 | Buddy Dharma | 4:50.12 | 0 | 0 |
| 2,009 | NoobPlayerBR | 4:50.51 | 0 | 0 |
| 2,010 | m3duatp | 4:53.24 | 0 | 0 |
| 2,011 | hyev7fam | 4:56.32 | 0 | 0 |
| 2,012 | Razand | 5:05.88 | 0 | 0 |
| 2,013 | Papa Sugar | 5:08.67 | 0 | 0 |
| 2,014 | Kirolous | 5:10.14 | 0 | 0 |
| 2,015 | Squalo | 5:15.65 | 0 | 0 |
| 2,016 | sanguchito | 5:39.60 | 0 | 0 |
| 2,017 | DeedleFake | 5:42.98 | 0 | 0 |
| 2,018 | SSGSS Tank | 5:47.71 | 0 | 0 |
| 2,019 | obv | 5:50.10 | 0 | 0 |
| 2,020 | AlaskaDan | 5:51.43 | 0 | 0 |
| 2,021 | EnotikBegemotik | 5:52.16 | 0 | 0 |
| 2,022 | noM0RE | 5:54.08 | 0 | 0 |
| 2,023 | Despo_357 | 6:26.30 | 0 | 0 |
| 2,024 | Potentiality12 | 9:19.32 | 0 | 0 |
| 2,025 | IzzytehWolf | 31:32.32 | 0 | 0 |
HoldGrip